Observation data for Palo Duro Canyon State Park Rim on 01/12/2018      Previous  Date  Next       Current Mesonet Observations  Soil Data  Daily Summary Page  Observations in Plain Language
KPD1 120600Z 03000KT M03/M10 A3026 RMK A01 T10261104  RH  055%=      5-min Rain = 0
KPD1 120601Z 03000KT M03/M11 A3026 RMK A01 T10251105  RH  054%=      5-min Rain = 0
KPD1 120602Z 00000KT M03/M11 A3026 RMK A01 T10261107  RH  054%=      5-min Rain = 0
KPD1 120603Z 00000KT M03/M11 A3026 RMK A01 T10271108  RH  054%=      5-min Rain = 0
KPD1 120604Z 04000KT M03/M11 A3026 RMK A01 T10251105  RH  054%=      5-min Rain = 0
KPD1 120605Z 04000KT M02/M10 A3026 RMK A01 T10241104  RH  054%=      5-min Rain = 0
KPD1 120606Z 04000KT M02/M11 A3026 RMK A01 T10231105  RH  053%=      5-min Rain = 0
KPD1 120607Z 05000KT M02/M11 A3026 RMK A01 T10231107  RH  053%=      5-min Rain = 0
KPD1 120608Z 00000KT M02/M11 A3026 RMK A01 T10231107  RH  052%=      5-min Rain = 0
KPD1 120609Z 05000KT M02/M11 A3026 RMK A01 T10241108  RH  052%=      5-min Rain = 0
KPD1 120610Z 05000KT M02/M11 A3026 RMK A01 T10241108  RH  053%=      5-min Rain = 0
KPD1 120611Z 00000KT M03/M11 A3026 RMK A01 T10251108  RH  053%=      5-min Rain = 0
KPD1 120612Z 05000KT M03/M11 A3026 RMK A01 T10251107  RH  053%=      5-min Rain = 0
KPD1 120613Z 05000KT M03/M11 A3026 RMK A01 T10251107  RH  053%=      5-min Rain = 0
KPD1 120614Z 05000KT M02/M11 A3026 RMK A01 T10231106  RH  053%=      5-min Rain = 0
KPD1 120615Z 05000KT M02/M11 A3026 RMK A01 T10231107  RH  053%=      5-min Rain = 0
KPD1 120616Z 05000KT M02/M11 A3026 RMK A01 T10241108  RH  053%=      5-min Rain = 0
KPD1 120617Z 05001KT M02/M11 A3026 RMK A01 T10241107  RH  053%=      5-min Rain = 0
KPD1 120618Z 05001KT M02/M11 A3026 RMK A01 T10241107  RH  053%=      5-min Rain = 0
KPD1 120619Z 05001KT M02/M11 A3026 RMK A01 T10241107  RH  053%=      5-min Rain = 0
KPD1 120620Z 05000KT M02/M11 A3026 RMK A01 T10231107  RH  053%=      5-min Rain = 0
KPD1 120621Z 00000KT M02/M11 A3026 RMK A01 T10231107  RH  053%=      5-min Rain = 0
KPD1 120622Z 05001KT M02/M11 A3026 RMK A01 T10231107  RH  053%=      5-min Rain = 0
KPD1 120623Z 05001KT M02/M11 A3026 RMK A01 T10221106  RH  053%=      5-min Rain = 0
KPD1 120624Z 05000KT M02/M11 A3026 RMK A01 T10231107  RH  052%=      5-min Rain = 0
KPD1 120625Z 00000KT M02/M11 A3026 RMK A01 T10231107  RH  053%=      5-min Rain = 0
KPD1 120626Z 00000KT M02/M11 A3026 RMK A01 T10221106  RH  053%=      5-min Rain = 0
KPD1 120627Z 04001KT M02/M11 A3026 RMK A01 T10221106  RH  052%=      5-min Rain = 0
KPD1 120628Z 05000KT M02/M11 A3026 RMK A01 T10231108  RH  052%=      5-min Rain = 0
KPD1 120629Z 04000KT M03/M11 A3026 RMK A01 T10261109  RH  053%=      5-min Rain = 0
KPD1 120630Z 04001KT M03/M11 A3026 RMK A01 T10261108  RH  053%=      5-min Rain = 0
KPD1 120631Z 04000KT M03/M11 A3026 RMK A01 T10271109  RH  053%=      5-min Rain = 0
KPD1 120632Z 00000KT M03/M11 A3026 RMK A01 T10291110  RH  054%=      5-min Rain = 0
KPD1 120633Z 00000KT M03/M11 A3026 RMK A01 T10301110  RH  054%=      5-min Rain = 0
KPD1 120634Z 00000KT M03/M11 A3026 RMK A01 T10311110  RH  054%=      5-min Rain = 0
KPD1 120635Z 00000KT M03/M11 A3026 RMK A01 T10311110  RH  055%=      5-min Rain = 0
KPD1 120636Z 00000KT M03/M11 A3026 RMK A01 T10321110  RH  055%=      5-min Rain = 0
KPD1 120637Z 00000KT M03/M11 A3026 RMK A01 T10331110  RH  055%=      5-min Rain = 0
KPD1 120638Z 00000KT M03/M11 A3026 RMK A01 T10331111  RH  055%=      5-min Rain = 0
KPD1 120639Z 00000KT M04/M11 A3026 RMK A01 T10351111  RH  055%=      5-min Rain = 0
KPD1 120640Z 00000KT M04/M11 A3026 RMK A01 T10361111  RH  056%=      5-min Rain = 0
KPD1 120641Z 00000KT M04/M11 A3026 RMK A01 T10361110  RH  056%=      5-min Rain = 0
KPD1 120642Z 00000KT M04/M11 A3026 RMK A01 T10351109  RH  057%=      5-min Rain = 0
KPD1 120643Z 00000KT M03/M11 A3026 RMK A01 T10331107  RH  057%=      5-min Rain = 0
KPD1 120644Z 00000KT M03/M11 A3026 RMK A01 T10311106  RH  056%=      5-min Rain = 0
KPD1 120645Z 00000KT M03/M11 A3026 RMK A01 T10291106  RH  055%=      5-min Rain = 0
KPD1 120646Z 06000KT M03/M11 A3026 RMK A01 T10291107  RH  055%=      5-min Rain = 0
KPD1 120647Z 06000KT M03/M11 A3026 RMK A01 T10281108  RH  054%=      5-min Rain = 0
KPD1 120648Z 06000KT M03/M11 A3025 RMK A01 T10291108  RH  054%=      5-min Rain = 0
KPD1 120649Z 00000KT M03/M11 A3025 RMK A01 T10291108  RH  054%=      5-min Rain = 0
KPD1 120650Z 00000KT M03/M11 A3025 RMK A01 T10291108  RH  054%=      5-min Rain = 0
KPD1 120651Z 00000KT M03/M11 A3025 RMK A01 T10281108  RH  054%=      5-min Rain = 0
KPD1 120652Z 00000KT M03/M11 A3025 RMK A01 T10291108  RH  054%=      5-min Rain = 0
KPD1 120653Z 00000KT M03/M11 A3025 RMK A01 T10301109  RH  054%=      5-min Rain = 0
KPD1 120654Z 00000KT M03/M11 A3025 RMK A01 T10311109  RH  055%=      5-min Rain = 0
KPD1 120655Z 00000KT M03/M11 A3025 RMK A01 T10321109  RH  055%=      5-min Rain = 0
KPD1 120656Z 00000KT M03/M11 A3025 RMK A01 T10331111  RH  055%=      5-min Rain = 0
KPD1 120657Z 00000KT M04/M11 A3026 RMK A01 T10361112  RH  055%=      5-min Rain = 0
KPD1 120658Z 00000KT M04/M11 A3026 RMK A01 T10371113  RH  056%=      5-min Rain = 0
KPD1 120659Z 00000KT M04/M11 A3026 RMK A01 T10381112  RH  056%=      5-min Rain = 0
KPD1 120700Z 00000KT M04/M11 A3026 RMK A01 T10391111  RH  057%=      5-min Rain = 0
KPD1 120701Z 00000KT M04/M11 A3026 RMK A01 T10391110  RH  058%=      5-min Rain = 0
KPD1 120702Z 00000KT M04/M11 A3026 RMK A01 T10371108  RH  058%=      5-min Rain = 0
KPD1 120703Z 00000KT M04/M11 A3026 RMK A01 T10351106  RH  058%=      5-min Rain = 0
KPD1 120704Z 00000KT M03/M11 A3026 RMK A01 T10331106  RH  057%=      5-min Rain = 0
KPD1 120705Z 00000KT M03/M11 A3026 RMK A01 T10331107  RH  057%=      5-min Rain = 0
KPD1 120706Z 00000KT M03/M11 A3025 RMK A01 T10331108  RH  056%=      5-min Rain = 0
KPD1 120707Z 00000KT M03/M11 A3025 RMK A01 T10321107  RH  056%=      5-min Rain = 0
KPD1 120708Z 00000KT M03/M11 A3025 RMK A01 T10321107  RH  056%=      5-min Rain = 0
KPD1 120709Z 00000KT M03/M11 A3025 RMK A01 T10311107  RH  056%=      5-min Rain = 0
KPD1 120710Z 00000KT M03/M11 A3025 RMK A01 T10311107  RH  055%=      5-min Rain = 0
KPD1 120711Z 00000KT M03/M11 A3025 RMK A01 T10311107  RH  055%=      5-min Rain = 0
KPD1 120712Z 00000KT M03/M11 A3025 RMK A01 T10311108  RH  055%=      5-min Rain = 0
KPD1 120713Z 00000KT M03/M11 A3025 RMK A01 T10321109  RH  055%=      5-min Rain = 0
KPD1 120714Z 00000KT M03/M11 A3025 RMK A01 T10331109  RH  055%=      5-min Rain = 0
KPD1 120715Z 00000KT M03/M11 A3025 RMK A01 T10331109  RH  056%=      5-min Rain = 0
KPD1 120716Z 00000KT M03/M11 A3025 RMK A01 T10321108  RH  056%=      5-min Rain = 0
KPD1 120717Z 00000KT M03/M11 A3025 RMK A01 T10321108  RH  056%=      5-min Rain = 0
KPD1 120718Z 00000KT M03/M11 A3025 RMK A01 T10321108  RH  056%=      5-min Rain = 0
KPD1 120719Z 00000KT M03/M11 A3025 RMK A01 T10321108  RH  056%=      5-min Rain = 0
KPD1 120720Z 00000KT M03/M11 A3025 RMK A01 T10321108  RH  056%=      5-min Rain = 0
KPD1 120721Z 00000KT M03/M11 A3025 RMK A01 T10311107  RH  056%=      5-min Rain = 0
KPD1 120722Z 00000KT M03/M11 A3025 RMK A01 T10301107  RH  056%=      5-min Rain = 0
KPD1 120723Z 00000KT M03/M11 A3025 RMK A01 T10301107  RH  055%=      5-min Rain = 0
KPD1 120724Z 00000KT M03/M11 A3025 RMK A01 T10301107  RH  055%=      5-min Rain = 0
KPD1 120725Z 00000KT M03/M11 A3025 RMK A01 T10301107  RH  055%=      5-min Rain = 0
KPD1 120726Z 00000KT M03/M11 A3024 RMK A01 T10301108  RH  055%=      5-min Rain = 0
KPD1 120727Z 00000KT M03/M11 A3024 RMK A01 T10311109  RH  055%=      5-min Rain = 0
KPD1 120728Z 00000KT M03/M11 A3024 RMK A01 T10331110  RH  055%=      5-min Rain = 0
KPD1 120729Z 00000KT M04/M11 A3024 RMK A01 T10351111  RH  056%=      5-min Rain = 0
KPD1 120730Z 00000KT M04/M11 A3024 RMK A01 T10361111  RH  056%=      5-min Rain = 0
KPD1 120731Z 00000KT M04/M11 A3024 RMK A01 T10371110  RH  057%=      5-min Rain = 0
KPD1 120732Z 03000KT M04/M11 A3024 RMK A01 T10381110  RH  057%=      5-min Rain = 0
KPD1 120733Z 06000KT M04/M11 A3024 RMK A01 T10371109  RH  057%=      5-min Rain = 0
KPD1 120734Z 00000KT M04/M11 A3024 RMK A01 T10381110  RH  057%=      5-min Rain = 0
KPD1 120735Z 00000KT M04/M11 A3024 RMK A01 T10391111  RH  057%=      5-min Rain = 0
KPD1 120736Z 00000KT M04/M11 A3024 RMK A01 T10401111  RH  058%=      5-min Rain = 0
KPD1 120737Z 00000KT M04/M11 A3024 RMK A01 T10411112  RH  058%=      5-min Rain = 0
KPD1 120738Z 13000KT M04/M11 A3024 RMK A01 T10421111  RH  058%=      5-min Rain = 0
KPD1 120739Z 13001KT M04/M11 A3024 RMK A01 T10421111  RH  059%=      5-min Rain = 0
KPD1 120740Z 13000KT M04/M11 A3024 RMK A01 T10421111  RH  059%=      5-min Rain = 0
KPD1 120741Z 13000KT M04/M11 A3024 RMK A01 T10421110  RH  059%=      5-min Rain = 0
KPD1 120742Z 00000KT M04/M11 A3024 RMK A01 T10421110  RH  059%=      5-min Rain = 0
KPD1 120743Z 00000KT M04/M11 A3024 RMK A01 T10411110  RH  059%=      5-min Rain = 0
KPD1 120744Z 00000KT M04/M11 A3024 RMK A01 T10401108  RH  059%=      5-min Rain = 0
KPD1 120745Z 00000KT M04/M11 A3024 RMK A01 T10381107  RH  059%=      5-min Rain = 0
KPD1 120746Z 00000KT M04/M11 A3024 RMK A01 T10381108  RH  058%=      5-min Rain = 0
KPD1 120747Z 00000KT M04/M11 A3024 RMK A01 T10381109  RH  058%=      5-min Rain = 0
KPD1 120748Z 00000KT M04/M11 A3024 RMK A01 T10381110  RH  057%=      5-min Rain = 0
KPD1 120749Z 00000KT M04/M11 A3024 RMK A01 T10391111  RH  058%=      5-min Rain = 0
KPD1 120750Z 00000KT M04/M11 A3024 RMK A01 T10391110  RH  058%=      5-min Rain = 0
KPD1 120751Z 00000KT M04/M11 A3024 RMK A01 T10391110  RH  058%=      5-min Rain = 0
KPD1 120752Z 00000KT M04/M11 A3024 RMK A01 T10391110  RH  058%=      5-min Rain = 0
KPD1 120753Z 00000KT M04/M11 A3024 RMK A01 T10401111  RH  058%=      5-min Rain = 0
KPD1 120754Z 00000KT M04/M11 A3024 RMK A01 T10401111  RH  058%=      5-min Rain = 0
KPD1 120755Z 00000KT M04/M11 A3024 RMK A01 T10401110  RH  058%=      5-min Rain = 0
KPD1 120756Z 00000KT M04/M11 A3024 RMK A01 T10411111  RH  058%=      5-min Rain = 0
KPD1 120757Z 00000KT M04/M11 A3024 RMK A01 T10411111  RH  058%=      5-min Rain = 0
KPD1 120758Z 00000KT M04/M11 A3024 RMK A01 T10421112  RH  058%=      5-min Rain = 0
KPD1 120759Z 00000KT M04/M11 A3024 RMK A01 T10421111  RH  059%=      5-min Rain = 0
KPD1 120800Z 00000KT M04/M11 A3024 RMK A01 T10421111  RH  059%=      5-min Rain = 0
KPD1 120801Z 00000KT M04/M11 A3024 RMK A01 T10421111  RH  059%=      5-min Rain = 0
KPD1 120802Z 00000KT M04/M11 A3024 RMK A01 T10421111  RH  059%=      5-min Rain = 0
KPD1 120803Z 00000KT M04/M11 A3024 RMK A01 T10421111  RH  059%=      5-min Rain = 0
KPD1 120804Z 00000KT M04/M11 A3024 RMK A01 T10421111  RH  059%=      5-min Rain = 0
KPD1 120805Z 00000KT M04/M11 A3024 RMK A01 T10431112  RH  059%=      5-min Rain = 0
KPD1 120806Z 00000KT M04/M11 A3025 RMK A01 T10431112  RH  059%=      5-min Rain = 0
KPD1 120807Z 13000KT M04/M11 A3025 RMK A01 T10441113  RH  059%=      5-min Rain = 0
KPD1 120808Z 13000KT M04/M11 A3025 RMK A01 T10441113  RH  059%=      5-min Rain = 0
KPD1 120809Z 00000KT M04/M11 A3025 RMK A01 T10441113  RH  059%=      5-min Rain = 0
KPD1 120810Z 00000KT M04/M11 A3025 RMK A01 T10441113  RH  059%=      5-min Rain = 0
KPD1 120811Z 00000KT M04/M11 A3025 RMK A01 T10441112  RH  059%=      5-min Rain = 0
KPD1 120812Z 00000KT M04/M11 A3025 RMK A01 T10431112  RH  059%=      5-min Rain = 0
KPD1 120813Z 00000KT M04/M11 A3024 RMK A01 T10431111  RH  059%=      5-min Rain = 0
KPD1 120814Z 00000KT M04/M11 A3024 RMK A01 T10431112  RH  058%=      5-min Rain = 0
KPD1 120815Z 00000KT M04/M11 A3024 RMK A01 T10431112  RH  058%=      5-min Rain = 0
KPD1 120816Z 13000KT M04/M11 A3024 RMK A01 T10431113  RH  058%=      5-min Rain = 0
KPD1 120817Z 00000KT M04/M11 A3024 RMK A01 T10441113  RH  058%=      5-min Rain = 0
KPD1 120818Z 13000KT M04/M11 A3024 RMK A01 T10441113  RH  058%=      5-min Rain = 0
KPD1 120819Z 13000KT M05/M11 A3024 RMK A01 T10451114  RH  058%=      5-min Rain = 0
KPD1 120820Z 00000KT M05/M12 A3024 RMK A01 T10451115  RH  058%=      5-min Rain = 0
KPD1 120821Z 00000KT M05/M12 A3024 RMK A01 T10461115  RH  058%=      5-min Rain = 0
KPD1 120822Z 00000KT M05/M12 A3024 RMK A01 T10471116  RH  059%=      5-min Rain = 0
KPD1 120823Z 00000KT M05/M12 A3024 RMK A01 T10481117  RH  059%=      5-min Rain = 0
KPD1 120824Z 13000KT M05/M12 A3024 RMK A01 T10501118  RH  059%=      5-min Rain = 0
KPD1 120825Z 13000KT M05/M12 A3024 RMK A01 T10511118  RH  059%=      5-min Rain = 0
KPD1 120826Z 14000KT M05/M12 A3024 RMK A01 T10511118  RH  060%=      5-min Rain = 0
KPD1 120827Z 00000KT M05/M12 A3024 RMK A01 T10521118  RH  060%=      5-min Rain = 0
KPD1 120828Z 00000KT M05/M12 A3024 RMK A01 T10541119  RH  060%=      5-min Rain = 0
KPD1 120829Z 00000KT M05/M12 A3023 RMK A01 T10541119  RH  060%=      5-min Rain = 0
KPD1 120830Z 00000KT M06/M12 A3023 RMK A01 T10551119  RH  061%=      5-min Rain = 0
KPD1 120831Z 00000KT M06/M12 A3023 RMK A01 T10551118  RH  061%=      5-min Rain = 0
KPD1 120832Z 22002KT M06/M12 A3023 RMK A01 T10551118  RH  061%=      5-min Rain = 0
KPD1 120833Z 22002KT M06/M12 A3023 RMK A01 T10551118  RH  061%=      5-min Rain = 0
KPD1 120834Z 23003KT M06/M12 A3023 RMK A01 T10561118  RH  061%=      5-min Rain = 0
KPD1 120835Z 23002KT M06/M12 A3023 RMK A01 T10561118  RH  062%=      5-min Rain = 0
KPD1 120836Z 22002KT M06/M12 A3023 RMK A01 T10571118  RH  062%=      5-min Rain = 0
KPD1 120837Z 22002KT M06/M12 A3023 RMK A01 T10571118  RH  062%=      5-min Rain = 0
KPD1 120838Z 22003KT M06/M12 A3023 RMK A01 T10571117  RH  062%=      5-min Rain = 0
KPD1 120839Z 22003KT M06/M12 A3022 RMK A01 T10561117  RH  062%=      5-min Rain = 0
KPD1 120840Z 22003KT M06/M12 A3022 RMK A01 T10571117  RH  062%=      5-min Rain = 0
KPD1 120841Z 21003KT M06/M12 A3022 RMK A01 T10571117  RH  062%=      5-min Rain = 0
KPD1 120842Z 21003KT M06/M12 A3022 RMK A01 T10571117  RH  062%=      5-min Rain = 0
KPD1 120843Z 21003KT M06/M12 A3022 RMK A01 T10571117  RH  063%=      5-min Rain = 0
KPD1 120844Z 20003KT M06/M12 A3022 RMK A01 T10561117  RH  063%=      5-min Rain = 0
KPD1 120845Z 20003KT M06/M12 A3022 RMK A01 T10571117  RH  063%=      5-min Rain = 0
KPD1 120846Z 20003KT M06/M12 A3022 RMK A01 T10571117  RH  063%=      5-min Rain = 0
KPD1 120847Z 19003KT M06/M12 A3022 RMK A01 T10571118  RH  063%=      5-min Rain = 0
KPD1 120848Z 19003KT M06/M12 A3022 RMK A01 T10581118  RH  063%=      5-min Rain = 0
KPD1 120849Z 19003KT M06/M12 A3021 RMK A01 T10581117  RH  063%=      5-min Rain = 0
KPD1 120850Z 19003KT M06/M12 A3021 RMK A01 T10581117  RH  063%=      5-min Rain = 0
KPD1 120851Z 19003KT M06/M12 A3021 RMK A01 T10581117  RH  063%=      5-min Rain = 0
KPD1 120852Z 20002KT M06/M12 A3021 RMK A01 T10581118  RH  063%=      5-min Rain = 0
KPD1 120853Z 20002KT M06/M12 A3021 RMK A01 T10581117  RH  063%=      5-min Rain = 0
KPD1 120854Z 20002KT M06/M12 A3021 RMK A01 T10591117  RH  063%=      5-min Rain = 0
KPD1 120855Z 20002KT M06/M12 A3021 RMK A01 T10591117  RH  063%=      5-min Rain = 0
KPD1 120856Z 20002KT M06/M12 A3021 RMK A01 T10581117  RH  063%=      5-min Rain = 0
KPD1 120857Z 20002KT M06/M12 A3021 RMK A01 T10591117  RH  064%=      5-min Rain = 0
KPD1 120858Z 20002KT M06/M12 A3022 RMK A01 T10591117  RH  064%=      5-min Rain = 0
KPD1 120859Z 20002KT M06/M12 A3022 RMK A01 T10591117  RH  064%=      5-min Rain = 0
KPD1 120900Z 20002KT M06/M12 A3022 RMK A01 T10591117  RH  064%=      5-min Rain = 0
KPD1 120901Z 20001KT M06/M12 A3022 RMK A01 T10601118  RH  063%=      5-min Rain = 0
KPD1 120902Z 20002KT M06/M12 A3022 RMK A01 T10601119  RH  063%=      5-min Rain = 0
KPD1 120903Z 20002KT M06/M12 A3022 RMK A01 T10601119  RH  063%=      5-min Rain = 0
KPD1 120904Z 20002KT M06/M12 A3021 RMK A01 T10611120  RH  063%=      5-min Rain = 0
KPD1 120905Z 19002KT M06/M12 A3021 RMK A01 T10611119  RH  063%=      5-min Rain = 0
KPD1 120906Z 19002KT M06/M12 A3022 RMK A01 T10611119  RH  064%=      5-min Rain = 0
KPD1 120907Z 18002KT M06/M12 A3022 RMK A01 T10611119  RH  064%=      5-min Rain = 0
KPD1 120908Z 18002KT M06/M12 A3022 RMK A01 T10621119  RH  064%=      5-min Rain = 0
KPD1 120909Z 19002KT M06/M12 A3022 RMK A01 T10631119  RH  064%=      5-min Rain = 0
KPD1 120910Z 19002KT M06/M12 A3022 RMK A01 T10631119  RH  065%=      5-min Rain = 0
KPD1 120911Z 18002KT M06/M12 A3022 RMK A01 T10631118  RH  065%=      5-min Rain = 0
KPD1 120912Z 18002KT M06/M12 A3022 RMK A01 T10631117  RH  065%=      5-min Rain = 0
KPD1 120913Z 18003KT M06/M12 A3022 RMK A01 T10631117  RH  066%=      5-min Rain = 0
KPD1 120914Z 18003KT M06/M12 A3021 RMK A01 T10621115  RH  066%=      5-min Rain = 0
KPD1 120915Z 18003KT M06/M12 A3021 RMK A01 T10621115  RH  066%=      5-min Rain = 0
KPD1 120916Z 18003KT M06/M11 A3021 RMK A01 T10611114  RH  066%=      5-min Rain = 0
KPD1 120917Z 18003KT M06/M12 A3021 RMK A01 T10601115  RH  065%=      5-min Rain = 0
KPD1 120918Z 18002KT M06/M12 A3021 RMK A01 T10601115  RH  065%=      5-min Rain = 0
KPD1 120919Z 18002KT M06/M11 A3022 RMK A01 T10591114  RH  065%=      5-min Rain = 0
KPD1 120920Z 18002KT M06/M11 A3022 RMK A01 T10581114  RH  065%=      5-min Rain = 0
KPD1 120921Z 18003KT M06/M11 A3022 RMK A01 T10571114  RH  065%=      5-min Rain = 0
KPD1 120922Z 18003KT M06/M11 A3022 RMK A01 T10581114  RH  064%=      5-min Rain = 0
KPD1 120923Z 19003KT M06/M11 A3022 RMK A01 T10581114  RH  064%=      5-min Rain = 0
KPD1 120924Z 19003KT M06/M11 A3022 RMK A01 T10571114  RH  064%=      5-min Rain = 0
KPD1 120925Z 20003KT M06/M11 A3022 RMK A01 T10561113  RH  064%=      5-min Rain = 0
KPD1 120926Z 20003KT M06/M11 A3022 RMK A01 T10551113  RH  064%=      5-min Rain = 0
KPD1 120927Z 20003KT M06/M11 A3022 RMK A01 T10551113  RH  064%=      5-min Rain = 0
KPD1 120928Z 21003KT M06/M11 A3022 RMK A01 T10551114  RH  063%=      5-min Rain = 0
KPD1 120929Z 21003KT M06/M11 A3022 RMK A01 T10551114  RH  063%=      5-min Rain = 0
KPD1 120930Z 22002KT M06/M11 A3022 RMK A01 T10551114  RH  063%=      5-min Rain = 0
KPD1 120931Z 22002KT M06/M11 A3022 RMK A01 T10551114  RH  063%=      5-min Rain = 0
KPD1 120932Z 22002KT M06/M12 A3022 RMK A01 T10551115  RH  063%=      5-min Rain = 0
KPD1 120933Z 22002KT M06/M12 A3022 RMK A01 T10551115  RH  063%=      5-min Rain = 0
KPD1 120934Z 22003KT M06/M12 A3021 RMK A01 T10561115  RH  063%=      5-min Rain = 0
KPD1 120935Z 22003KT M06/M12 A3021 RMK A01 T10561115  RH  063%=      5-min Rain = 0
KPD1 120936Z 22003KT M06/M12 A3021 RMK A01 T10571116  RH  063%=      5-min Rain = 0
KPD1 120937Z 22003KT M06/M12 A3021 RMK A01 T10581117  RH  063%=      5-min Rain = 0
KPD1 120938Z 21003KT M06/M12 A3021 RMK A01 T10581117  RH  063%=      5-min Rain = 0
KPD1 120939Z 20003KT M06/M12 A3021 RMK A01 T10591117  RH  064%=      5-min Rain = 0
KPD1 120940Z 20002KT M06/M12 A3021 RMK A01 T10591116  RH  064%=      5-min Rain = 0
KPD1 120941Z 20002KT M06/M12 A3021 RMK A01 T10591116  RH  065%=      5-min Rain = 0
KPD1 120942Z 20002KT M06/M12 A3021 RMK A01 T10591115  RH  065%=      5-min Rain = 0
KPD1 120943Z 20002KT M06/M11 A3021 RMK A01 T10591114  RH  065%=      5-min Rain = 0
KPD1 120944Z 20003KT M06/M11 A3021 RMK A01 T10571113  RH  065%=      5-min Rain = 0
KPD1 120945Z 20003KT M06/M11 A3021 RMK A01 T10561113  RH  064%=      5-min Rain = 0
KPD1 120946Z 21003KT M06/M11 A3021 RMK A01 T10561113  RH  064%=      5-min Rain = 0
KPD1 120947Z 22004KT M06/M11 A3021 RMK A01 T10561114  RH  064%=      5-min Rain = 0
KPD1 120948Z 22003KT M06/M12 A3021 RMK A01 T10561115  RH  064%=      5-min Rain = 0
KPD1 120949Z 22004KT M06/M12 A3021 RMK A01 T10571116  RH  064%=      5-min Rain = 0
KPD1 120950Z 22003KT M06/M12 A3021 RMK A01 T10581116  RH  064%=      5-min Rain = 0
KPD1 120951Z 22003KT M06/M12 A3021 RMK A01 T10591116  RH  064%=      5-min Rain = 0
KPD1 120952Z 22003KT M06/M12 A3021 RMK A01 T10581115  RH  064%=      5-min Rain = 0
KPD1 120953Z 22003KT M06/M12 A3021 RMK A01 T10581115  RH  064%=      5-min Rain = 0
KPD1 120954Z 23004KT M06/M12 A3021 RMK A01 T10591115  RH  064%=      5-min Rain = 0
KPD1 120955Z 23003KT M06/M12 A3021 RMK A01 T10591115  RH  064%=      5-min Rain = 0
KPD1 120956Z 23004KT M06/M12 A3021 RMK A01 T10591115  RH  064%=      5-min Rain = 0
KPD1 120957Z 23004KT M06/M12 A3021 RMK A01 T10591115  RH  064%=      5-min Rain = 0
KPD1 120958Z 23004KT M06/M12 A3021 RMK A01 T10591115  RH  064%=      5-min Rain = 0
KPD1 120959Z 23004KT M06/M12 A3021 RMK A01 T10591115  RH  064%=      5-min Rain = 0
KPD1 121000Z 23004KT M06/M12 A3021 RMK A01 T10591116  RH  064%=      5-min Rain = 0
KPD1 121001Z 23005KT M06/M12 A3021 RMK A01 T10591116  RH  064%=      5-min Rain = 0
KPD1 121002Z 23005KT M06/M12 A3021 RMK A01 T10591116  RH  064%=      5-min Rain = 0
KPD1 121003Z 23005KT M06/M12 A3021 RMK A01 T10601117  RH  064%=      5-min Rain = 0
KPD1 121004Z 22005KT M06/M12 A3021 RMK A01 T10601116  RH  064%=      5-min Rain = 0
KPD1 121005Z 22005KT M06/M12 A3021 RMK A01 T10601116  RH  064%=      5-min Rain = 0
KPD1 121006Z 22005KT M06/M12 A3021 RMK A01 T10601116  RH  064%=      5-min Rain = 0
KPD1 121007Z 22005KT M06/M12 A3021 RMK A01 T10591115  RH  064%=      5-min Rain = 0
KPD1 121008Z 22005KT M06/M12 A3021 RMK A01 T10591117  RH  064%=      5-min Rain = 0
KPD1 121009Z 23005KT M06/M12 A3021 RMK A01 T10601118  RH  064%=      5-min Rain = 0
KPD1 121010Z 23004KT M06/M12 A3021 RMK A01 T10611117  RH  064%=      5-min Rain = 0
KPD1 121011Z 23004KT M06/M12 A3021 RMK A01 T10601116  RH  064%=      5-min Rain = 0
KPD1 121012Z 23004KT M06/M12 A3022 RMK A01 T10601116  RH  065%=      5-min Rain = 0
KPD1 121013Z 23003KT M06/M12 A3022 RMK A01 T10591116  RH  064%=      5-min Rain = 0
KPD1 121014Z 23003KT M06/M12 A3022 RMK A01 T10591116  RH  064%=      5-min Rain = 0
KPD1 121015Z 23003KT M06/M12 A3022 RMK A01 T10591116  RH  064%=      5-min Rain = 0
KPD1 121016Z 23003KT M06/M12 A3022 RMK A01 T10601116  RH  064%=      5-min Rain = 0
KPD1 121017Z 23002KT M06/M12 A3022 RMK A01 T10591116  RH  064%=      5-min Rain = 0
KPD1 121018Z 23002KT M06/M12 A3022 RMK A01 T10591116  RH  064%=      5-min Rain = 0
KPD1 121019Z 22002KT M06/M12 A3022 RMK A01 T10601116  RH  064%=      5-min Rain = 0
KPD1 121020Z 23002KT M06/M12 A3022 RMK A01 T10601117  RH  064%=      5-min Rain = 0
KPD1 121021Z 24003KT M06/M12 A3022 RMK A01 T10601117  RH  064%=      5-min Rain = 0
KPD1 121022Z 24003KT M06/M12 A3022 RMK A01 T10601116  RH  065%=      5-min Rain = 0
KPD1 121023Z 24003KT M06/M12 A3022 RMK A01 T10601116  RH  065%=      5-min Rain = 0
KPD1 121024Z 24003KT M06/M12 A3022 RMK A01 T10601116  RH  065%=      5-min Rain = 0
KPD1 121025Z 24003KT M06/M12 A3022 RMK A01 T10601116  RH  065%=      5-min Rain = 0
KPD1 121026Z 24003KT M06/M12 A3022 RMK A01 T10601116  RH  065%=      5-min Rain = 0
KPD1 121027Z 24004KT M06/M12 A3022 RMK A01 T10601116  RH  065%=      5-min Rain = 0
KPD1 121028Z 24004KT M06/M12 A3022 RMK A01 T10601116  RH  065%=      5-min Rain = 0
KPD1 121029Z 24004KT M06/M12 A3022 RMK A01 T10611116  RH  065%=      5-min Rain = 0
KPD1 121030Z 24004KT M06/M12 A3022 RMK A01 T10611117  RH  065%=      5-min Rain = 0
KPD1 121031Z 24004KT M06/M12 A3022 RMK A01 T10611117  RH  065%=      5-min Rain = 0
KPD1 121032Z 23004KT M06/M12 A3022 RMK A01 T10621118  RH  065%=      5-min Rain = 0
KPD1 121033Z 24004KT M06/M12 A3022 RMK A01 T10631118  RH  065%=      5-min Rain = 0
KPD1 121034Z 23004KT M06/M12 A3022 RMK A01 T10641118  RH  065%=      5-min Rain = 0
KPD1 121035Z 23004KT M06/M12 A3022 RMK A01 T10641118  RH  065%=      5-min Rain = 0
KPD1 121036Z 22003KT M06/M12 A3022 RMK A01 T10641118  RH  066%=      5-min Rain = 0
KPD1 121037Z 22003KT M06/M12 A3022 RMK A01 T10641118  RH  066%=      5-min Rain = 0
KPD1 121038Z 22003KT M06/M12 A3022 RMK A01 T10641118  RH  066%=      5-min Rain = 0
KPD1 121039Z 22003KT M06/M12 A3022 RMK A01 T10641117  RH  066%=      5-min Rain = 0
KPD1 121040Z 23003KT M06/M12 A3022 RMK A01 T10641118  RH  066%=      5-min Rain = 0
KPD1 121041Z 24004KT M06/M12 A3022 RMK A01 T10641118  RH  066%=      5-min Rain = 0
KPD1 121042Z 24004KT M06/M12 A3022 RMK A01 T10641117  RH  066%=      5-min Rain = 0
KPD1 121043Z 23003KT M06/M12 A3022 RMK A01 T10641117  RH  066%=      5-min Rain = 0
KPD1 121044Z 24003KT M06/M12 A3022 RMK A01 T10641117  RH  066%=      5-min Rain = 0
KPD1 121045Z 24004KT M06/M12 A3022 RMK A01 T10641117  RH  066%=      5-min Rain = 0
KPD1 121046Z 23003KT M07/M12 A3022 RMK A01 T10651117  RH  066%=      5-min Rain = 0
KPD1 121047Z 23004KT M06/M12 A3022 RMK A01 T10641117  RH  066%=      5-min Rain = 0
KPD1 121048Z 23004KT M06/M12 A3022 RMK A01 T10641117  RH  066%=      5-min Rain = 0
KPD1 121049Z 22003KT M06/M12 A3022 RMK A01 T10641117  RH  066%=      5-min Rain = 0
KPD1 121050Z 22003KT M06/M12 A3022 RMK A01 T10631116  RH  066%=      5-min Rain = 0
KPD1 121051Z 22003KT M06/M12 A3022 RMK A01 T10631116  RH  066%=      5-min Rain = 0
KPD1 121052Z 22003KT M06/M12 A3022 RMK A01 T10631116  RH  066%=      5-min Rain = 0
KPD1 121053Z 22003KT M06/M12 A3022 RMK A01 T10641117  RH  066%=      5-min Rain = 0
KPD1 121054Z 21003KT M06/M12 A3022 RMK A01 T10641117  RH  066%=      5-min Rain = 0
KPD1 121055Z 20003KT M06/M12 A3022 RMK A01 T10641117  RH  066%=      5-min Rain = 0
KPD1 121056Z 19003KT M06/M12 A3022 RMK A01 T10641117  RH  066%=      5-min Rain = 0
KPD1 121057Z 19002KT M06/M12 A3022 RMK A01 T10641117  RH  066%=      5-min Rain = 0
KPD1 121058Z 19002KT M07/M12 A3021 RMK A01 T10651118  RH  066%=      5-min Rain = 0
KPD1 121059Z 18002KT M07/M12 A3021 RMK A01 T10661118  RH  066%=      5-min Rain = 0
KPD1 121100Z 18002KT M07/M12 A3021 RMK A01 T10661118  RH  066%=      5-min Rain = 0
KPD1 121101Z 18003KT M07/M12 A3021 RMK A01 T10651117  RH  067%=      5-min Rain = 0
KPD1 121102Z 18003KT M07/M12 A3021 RMK A01 T10651117  RH  066%=      5-min Rain = 0
KPD1 121103Z 18003KT M07/M12 A3021 RMK A01 T10651118  RH  066%=      5-min Rain = 0
KPD1 121104Z 18003KT M07/M12 A3021 RMK A01 T10651118  RH  066%=      5-min Rain = 0
KPD1 121105Z 18003KT M07/M12 A3021 RMK A01 T10661119  RH  066%=      5-min Rain = 0
KPD1 121106Z 18002KT M07/M12 A3021 RMK A01 T10661119  RH  066%=      5-min Rain = 0
KPD1 121107Z 18002KT M07/M12 A3021 RMK A01 T10671120  RH  066%=      5-min Rain = 0
KPD1 121108Z 18002KT M07/M12 A3021 RMK A01 T10671120  RH  066%=      5-min Rain = 0
KPD1 121109Z 18003KT M07/M12 A3021 RMK A01 T10681120  RH  066%=      5-min Rain = 0
KPD1 121110Z 18002KT M07/M12 A3021 RMK A01 T10681120  RH  067%=      5-min Rain = 0
KPD1 121111Z 18002KT M07/M12 A3021 RMK A01 T10691120  RH  067%=      5-min Rain = 0
KPD1 121112Z 18002KT M07/M12 A3021 RMK A01 T10691120  RH  067%=      5-min Rain = 0
KPD1 121113Z 18002KT M07/M12 A3021 RMK A01 T10691120  RH  067%=      5-min Rain = 0
KPD1 121114Z 18002KT M07/M12 A3021 RMK A01 T10691120  RH  067%=      5-min Rain = 0
KPD1 121115Z 18003KT M07/M12 A3021 RMK A01 T10691119  RH  068%=      5-min Rain = 0
KPD1 121116Z 18004KT M07/M12 A3021 RMK A01 T10691119  RH  068%=      5-min Rain = 0
KPD1 121117Z 18004KT M07/M12 A3021 RMK A01 T10691119  RH  068%=      5-min Rain = 0
KPD1 121118Z 17004KT M07/M12 A3021 RMK A01 T10691119  RH  068%=      5-min Rain = 0
KPD1 121119Z 18004KT M07/M12 A3021 RMK A01 T10691119  RH  067%=      5-min Rain = 0
KPD1 121120Z 18005KT M07/M12 A302 RMK A01 T10701120  RH  067%=      5-min Rain = 0
KPD1 121121Z 18005KT M07/M12 A302 RMK A01 T10701120  RH  067%=      5-min Rain = 0
KPD1 121122Z 19005KT M07/M12 A302 RMK A01 T10701121  RH  067%=      5-min Rain = 0
KPD1 121123Z 19005KT M07/M12 A302 RMK A01 T10711121  RH  068%=      5-min Rain = 0
KPD1 121124Z 19005KT M07/M12 A302 RMK A01 T10721122  RH  068%=      5-min Rain = 0
KPD1 121125Z 19005KT M07/M12 A302 RMK A01 T10731122  RH  068%=      5-min Rain = 0
KPD1 121126Z 19005KT M07/M12 A302 RMK A01 T10731122  RH  068%=      5-min Rain = 0
KPD1 121127Z 19005KT M07/M12 A302 RMK A01 T10731122  RH  068%=      5-min Rain = 0
KPD1 121128Z 19005KT M07/M12 A302 RMK A01 T10741122  RH  068%=      5-min Rain = 0
KPD1 121129Z 19005KT M07/M12 A302 RMK A01 T10741122  RH  069%=      5-min Rain = 0
KPD1 121130Z 19005KT M07/M12 A302 RMK A01 T10741122  RH  069%=      5-min Rain = 0
KPD1 121131Z 19005KT M08/M12 A3021 RMK A01 T10751122  RH  069%=      5-min Rain = 0
KPD1 121132Z 19005KT M08/M12 A3021 RMK A01 T10751122  RH  069%=      5-min Rain = 0
KPD1 121133Z 19005KT M08/M12 A3021 RMK A01 T10751122  RH  069%=      5-min Rain = 0
KPD1 121134Z 19004KT M08/M12 A3021 RMK A01 T10751121  RH  069%=      5-min Rain = 0
KPD1 121135Z 18004KT M07/M12 A3021 RMK A01 T10741121  RH  069%=      5-min Rain = 0
KPD1 121136Z 19003KT M07/M12 A3021 RMK A01 T10731120  RH  070%=      5-min Rain = 0
KPD1 121137Z 19003KT M07/M12 A3021 RMK A01 T10721119  RH  069%=      5-min Rain = 0
KPD1 121138Z 19003KT M07/M12 A3021 RMK A01 T10711118  RH  069%=      5-min Rain = 0
KPD1 121139Z 20004KT M07/M12 A3021 RMK A01 T10711119  RH  069%=      5-min Rain = 0
KPD1 121140Z 20004KT M07/M12 A3021 RMK A01 T10711119  RH  069%=      5-min Rain = 0
KPD1 121141Z 20004KT M07/M12 A3021 RMK A01 T10711119  RH  068%=      5-min Rain = 0
KPD1 121142Z 20004KT M07/M12 A3021 RMK A01 T10701118  RH  068%=      5-min Rain = 0
KPD1 121143Z 20004KT M07/M12 A3021 RMK A01 T10691118  RH  068%=      5-min Rain = 0
KPD1 121144Z 20004KT M07/M12 A3021 RMK A01 T10681118  RH  068%=      5-min Rain = 0
KPD1 121145Z 20004KT M07/M12 A3021 RMK A01 T10681118  RH  068%=      5-min Rain = 0
KPD1 121146Z 20004KT M07/M12 A3021 RMK A01 T10671118  RH  067%=      5-min Rain = 0
KPD1 121147Z 19004KT M07/M12 A3021 RMK A01 T10671118  RH  067%=      5-min Rain = 0
KPD1 121148Z 19004KT M07/M12 A3021 RMK A01 T10671118  RH  067%=      5-min Rain = 0
KPD1 121149Z 18004KT M07/M12 A3021 RMK A01 T10671119  RH  067%=      5-min Rain = 0
KPD1 121150Z 18004KT M07/M12 A3021 RMK A01 T10671119  RH  067%=      5-min Rain = 0
KPD1 121151Z 18005KT M07/M12 A3021 RMK A01 T10671119  RH  067%=      5-min Rain = 0
KPD1 121152Z 19005KT M07/M12 A3021 RMK A01 T10671118  RH  067%=      5-min Rain = 0
KPD1 121153Z 19005KT M07/M12 A3021 RMK A01 T10671118  RH  067%=      5-min Rain = 0
KPD1 121154Z 19005KT M07/M12 A3021 RMK A01 T10671119  RH  067%=      5-min Rain = 0
KPD1 121155Z 19004KT M07/M12 A3021 RMK A01 T10671119  RH  066%=      5-min Rain = 0
KPD1 121156Z 19005KT M07/M12 A3021 RMK A01 T10671119  RH  066%=      5-min Rain = 0
KPD1 121157Z 19005KT M07/M12 A3021 RMK A01 T10671119  RH  066%=      5-min Rain = 0
KPD1 121158Z 19005KT M07/M12 A3021 RMK A01 T10681120  RH  067%=      5-min Rain = 0
KPD1 121159Z 19005KT M07/M12 A3021 RMK A01 T10681119  RH  067%=      5-min Rain = 0
KPD1 121200Z 19005KT M07/M12 A3021 RMK A01 T10681119  RH  067%=      5-min Rain = 0
KPD1 121201Z 19005KT M07/M12 A3021 RMK A01 T10671119  RH  067%=      5-min Rain = 0
KPD1 121202Z 19005KT M07/M12 A3021 RMK A01 T10681119  RH  067%=      5-min Rain = 0
KPD1 121203Z 20005KT M07/M12 A3021 RMK A01 T10671119  RH  067%=      5-min Rain = 0
KPD1 121204Z 20005KT M07/M12 A3021 RMK A01 T10671119  RH  067%=      5-min Rain = 0
KPD1 121205Z 20005KT M07/M12 A302 RMK A01 T10681120  RH  067%=      5-min Rain = 0
KPD1 121206Z 20005KT M07/M12 A302 RMK A01 T10681120  RH  067%=      5-min Rain = 0
KPD1 121207Z 20005KT M07/M12 A3021 RMK A01 T10691120  RH  067%=      5-min Rain = 0
KPD1 121208Z 20005KT M07/M12 A3021 RMK A01 T10691120  RH  067%=      5-min Rain = 0
KPD1 121209Z 20005KT M07/M12 A3021 RMK A01 T10691120  RH  067%=      5-min Rain = 0
KPD1 121210Z 19005KT M07/M12 A3021 RMK A01 T10691120  RH  067%=      5-min Rain = 0
KPD1 121211Z 19005KT M07/M12 A3021 RMK A01 T10691120  RH  067%=      5-min Rain = 0
KPD1 121212Z 19005KT M07/M12 A3021 RMK A01 T10691120  RH  067%=      5-min Rain = 0
KPD1 121213Z 19005KT M07/M12 A3021 RMK A01 T10701120  RH  067%=      5-min Rain = 0
KPD1 121214Z 19005KT M07/M12 A302 RMK A01 T10691120  RH  067%=      5-min Rain = 0
KPD1 121215Z 19005KT M07/M12 A302 RMK A01 T10691119  RH  068%=      5-min Rain = 0
KPD1 121216Z 20004KT M07/M12 A302 RMK A01 T10691119  RH  068%=      5-min Rain = 0
KPD1 121217Z 19005KT M07/M12 A302 RMK A01 T10691119  RH  067%=      5-min Rain = 0
KPD1 121218Z 19005KT M07/M12 A302 RMK A01 T10691119  RH  067%=      5-min Rain = 0
KPD1 121219Z 19005KT M07/M12 A302 RMK A01 T10691119  RH  067%=      5-min Rain = 0
KPD1 121220Z 18004KT M07/M12 A302 RMK A01 T10691119  RH  067%=      5-min Rain = 0
KPD1 121221Z 19005KT M07/M12 A302 RMK A01 T10691120  RH  067%=      5-min Rain = 0
KPD1 121222Z 18005KT M07/M12 A302 RMK A01 T10701120  RH  067%=      5-min Rain = 0
KPD1 121223Z 18004KT M07/M12 A302 RMK A01 T10701120  RH  067%=      5-min Rain = 0
KPD1 121224Z 17005KT M07/M12 A302 RMK A01 T10701120  RH  067%=      5-min Rain = 0
KPD1 121225Z 17005KT M07/M12 A302 RMK A01 T10701120  RH  068%=      5-min Rain = 0
KPD1 121226Z 17005KT M07/M12 A302 RMK A01 T10701120  RH  068%=      5-min Rain = 0
KPD1 121227Z 16004KT M07/M12 A302 RMK A01 T10701120  RH  068%=      5-min Rain = 0
KPD1 121228Z 16004KT M07/M12 A302 RMK A01 T10701120  RH  068%=      5-min Rain = 0
KPD1 121229Z 16004KT M07/M12 A302 RMK A01 T10701120  RH  068%=      5-min Rain = 0
KPD1 121230Z 16004KT M07/M12 A302 RMK A01 T10701120  RH  067%=      5-min Rain = 0
KPD1 121231Z 16004KT M07/M12 A302 RMK A01 T10691120  RH  067%=      5-min Rain = 0
KPD1 121232Z 16004KT M07/M12 A302 RMK A01 T10691120  RH  067%=      5-min Rain = 0
KPD1 121233Z 16004KT M07/M12 A302 RMK A01 T10701120  RH  067%=      5-min Rain = 0
KPD1 121234Z 16004KT M07/M12 A302 RMK A01 T10701120  RH  067%=      5-min Rain = 0
KPD1 121235Z 17004KT M07/M12 A302 RMK A01 T10701120  RH  067%=      5-min Rain = 0
KPD1 121236Z 17004KT M07/M12 A302 RMK A01 T10691120  RH  067%=      5-min Rain = 0
KPD1 121237Z 17003KT M07/M12 A302 RMK A01 T10691120  RH  067%=      5-min Rain = 0
KPD1 121238Z 17003KT M07/M12 A302 RMK A01 T10691121  RH  067%=      5-min Rain = 0
KPD1 121239Z 18004KT M07/M12 A302 RMK A01 T10701121  RH  067%=      5-min Rain = 0
KPD1 121240Z 18004KT M07/M12 A302 RMK A01 T10701121  RH  067%=      5-min Rain = 0
KPD1 121241Z 18004KT M07/M12 A302 RMK A01 T10711122  RH  067%=      5-min Rain = 0
KPD1 121242Z 18005KT M07/M12 A302 RMK A01 T10711121  RH  067%=      5-min Rain = 0
KPD1 121243Z 18005KT M07/M12 A302 RMK A01 T10711121  RH  067%=      5-min Rain = 0
KPD1 121244Z 18005KT M07/M12 A302 RMK A01 T10711121  RH  067%=      5-min Rain = 0
KPD1 121245Z 18005KT M07/M12 A302 RMK A01 T10711121  RH  067%=      5-min Rain = 0
KPD1 121246Z 19005KT M07/M12 A302 RMK A01 T10721123  RH  067%=      5-min Rain = 0
KPD1 121247Z 19005KT M07/M13 A302 RMK A01 T10741125  RH  067%=      5-min Rain = 0
KPD1 121248Z 19006KT M07/M13 A3021 RMK A01 T10741125  RH  067%=      5-min Rain = 0
KPD1 121249Z 20006KT M07/M12 A3021 RMK A01 T10741124  RH  068%=      5-min Rain = 0
KPD1 121250Z 19006KT M07/M12 A3021 RMK A01 T10741123  RH  068%=      5-min Rain = 0
KPD1 121251Z 19006KT M08/M12 A3021 RMK A01 T10751123  RH  068%=      5-min Rain = 0
KPD1 121252Z 19006KT M07/M12 A3021 RMK A01 T10741123  RH  068%=      5-min Rain = 0
KPD1 121253Z 19006KT M07/M12 A3021 RMK A01 T10741122  RH  068%=      5-min Rain = 0
KPD1 121254Z 19005KT M07/M12 A3021 RMK A01 T10731122  RH  068%=      5-min Rain = 0
KPD1 121255Z 19005KT M07/M12 A3021 RMK A01 T10731122  RH  068%=      5-min Rain = 0
KPD1 121256Z 19005KT M07/M12 A3021 RMK A01 T10731122  RH  068%=      5-min Rain = 0
KPD1 121257Z 19005KT M07/M12 A3021 RMK A01 T10731122  RH  068%=      5-min Rain = 0
KPD1 121258Z 19005KT M07/M12 A3021 RMK A01 T10721121  RH  068%=      5-min Rain = 0
KPD1 121259Z 19005KT M07/M12 A3021 RMK A01 T10721121  RH  068%=      5-min Rain = 0
KPD1 121300Z 19005KT M07/M12 A3022 RMK A01 T10721122  RH  068%=      5-min Rain = 0
KPD1 121301Z 19005KT M07/M12 A3022 RMK A01 T10721121  RH  068%=      5-min Rain = 0
KPD1 121302Z 19005KT M07/M12 A3022 RMK A01 T10711121  RH  067%=      5-min Rain = 0
KPD1 121303Z 19005KT M07/M12 A3022 RMK A01 T10711121  RH  067%=      5-min Rain = 0
KPD1 121304Z 19004KT M07/M12 A3022 RMK A01 T10711121  RH  067%=      5-min Rain = 0
KPD1 121305Z 18004KT M07/M12 A3022 RMK A01 T10701121  RH  067%=      5-min Rain = 0
KPD1 121306Z 19004KT M07/M12 A3022 RMK A01 T10701121  RH  067%=      5-min Rain = 0
KPD1 121307Z 19004KT M07/M12 A3022 RMK A01 T10701121  RH  067%=      5-min Rain = 0
KPD1 121308Z 19003KT M07/M12 A3022 RMK A01 T10701121  RH  067%=      5-min Rain = 0
KPD1 121309Z 19003KT M07/M12 A3022 RMK A01 T10701122  RH  067%=      5-min Rain = 0
KPD1 121310Z 18003KT M07/M12 A3022 RMK A01 T10701122  RH  067%=      5-min Rain = 0
KPD1 121311Z 18003KT M07/M12 A3022 RMK A01 T10701121  RH  067%=      5-min Rain = 0
KPD1 121312Z 18003KT M07/M12 A3022 RMK A01 T10701121  RH  067%=      5-min Rain = 0
KPD1 121313Z 18003KT M07/M12 A3022 RMK A01 T10701121  RH  067%=      5-min Rain = 0
KPD1 121314Z 18003KT M07/M12 A3022 RMK A01 T10701121  RH  067%=      5-min Rain = 0
KPD1 121315Z 18003KT M07/M12 A3022 RMK A01 T10701121  RH  067%=      5-min Rain = 0
KPD1 121316Z 18003KT M07/M12 A3022 RMK A01 T10691121  RH  067%=      5-min Rain = 0
KPD1 121317Z 18003KT M07/M12 A3022 RMK A01 T10701121  RH  067%=      5-min Rain = 0
KPD1 121318Z 18003KT M07/M12 A3022 RMK A01 T10701121  RH  067%=      5-min Rain = 0
KPD1 121319Z 19003KT M07/M12 A3022 RMK A01 T10691121  RH  067%=      5-min Rain = 0
KPD1 121320Z 19003KT M07/M12 A3022 RMK A01 T10691121  RH  067%=      5-min Rain = 0
KPD1 121321Z 19003KT M07/M12 A3022 RMK A01 T10691121  RH  067%=      5-min Rain = 0
KPD1 121322Z 18003KT M07/M12 A3022 RMK A01 T10701122  RH  067%=      5-min Rain = 0
KPD1 121323Z 18003KT M07/M12 A3022 RMK A01 T10691121  RH  066%=      5-min Rain = 0
KPD1 121324Z 18003KT M07/M12 A3022 RMK A01 T10691121  RH  066%=      5-min Rain = 0
KPD1 121325Z 17004KT M07/M12 A3022 RMK A01 T10701122  RH  066%=      5-min Rain = 0
KPD1 121326Z 18004KT M07/M12 A3022 RMK A01 T10711123  RH  066%=      5-min Rain = 0
KPD1 121327Z 18003KT M07/M12 A3022 RMK A01 T10711123  RH  066%=      5-min Rain = 0
KPD1 121328Z 18003KT M07/M12 A3022 RMK A01 T10721123  RH  067%=      5-min Rain = 0
KPD1 121329Z 18004KT M07/M12 A3022 RMK A01 T10721123  RH  067%=      5-min Rain = 0
KPD1 121330Z 18004KT M07/M12 A3022 RMK A01 T10721123  RH  067%=      5-min Rain = 0
KPD1 121331Z 18004KT M07/M12 A3022 RMK A01 T10731123  RH  067%=      5-min Rain = 0
KPD1 121332Z 18004KT M07/M12 A3022 RMK A01 T10731124  RH  067%=      5-min Rain = 0
KPD1 121333Z 18004KT M07/M12 A3022 RMK A01 T10731123  RH  068%=      5-min Rain = 0
KPD1 121334Z 19004KT M07/M12 A3022 RMK A01 T10741123  RH  068%=      5-min Rain = 0
KPD1 121335Z 19004KT M07/M12 A3022 RMK A01 T10741123  RH  068%=      5-min Rain = 0
KPD1 121336Z 19004KT M07/M12 A3022 RMK A01 T10731123  RH  068%=      5-min Rain = 0
KPD1 121337Z 19005KT M07/M12 A3022 RMK A01 T10731122  RH  068%=      5-min Rain = 0
KPD1 121338Z 20005KT M07/M12 A3022 RMK A01 T10731123  RH  068%=      5-min Rain = 0
KPD1 121339Z 19005KT M07/M12 A3022 RMK A01 T10741124  RH  068%=      5-min Rain = 0
KPD1 121340Z 19005KT M07/M12 A3022 RMK A01 T10741124  RH  068%=      5-min Rain = 0
KPD1 121341Z 18005KT M07/M12 A3022 RMK A01 T10741124  RH  068%=      5-min Rain = 0
KPD1 121342Z 18005KT M08/M12 A3022 RMK A01 T10751124  RH  068%=      5-min Rain = 0
KPD1 121343Z 18005KT M08/M12 A3022 RMK A01 T10751124  RH  068%=      5-min Rain = 0
KPD1 121344Z 18005KT M08/M12 A3022 RMK A01 T10751124  RH  068%=      5-min Rain = 0
KPD1 121345Z 18004KT M08/M12 A3022 RMK A01 T10751123  RH  068%=      5-min Rain = 0
KPD1 121346Z 18005KT M08/M12 A3022 RMK A01 T10751123  RH  069%=      5-min Rain = 0
KPD1 121347Z 18005KT M08/M12 A3022 RMK A01 T10751123  RH  069%=      5-min Rain = 0
KPD1 121348Z 18005KT M08/M12 A3022 RMK A01 T10751123  RH  069%=      5-min Rain = 0
KPD1 121349Z 18004KT M08/M12 A3022 RMK A01 T10751122  RH  069%=      5-min Rain = 0
KPD1 121350Z 18005KT M08/M12 A3022 RMK A01 T10751122  RH  069%=      5-min Rain = 0
KPD1 121351Z 18005KT M08/M12 A3022 RMK A01 T10751122  RH  069%=      5-min Rain = 0
KPD1 121352Z 18006KT M08/M12 A3022 RMK A01 T10751122  RH  069%=      5-min Rain = 0
KPD1 121353Z 18005KT M08/M12 A3022 RMK A01 T10751122  RH  069%=      5-min Rain = 0
KPD1 121354Z 18006KT M07/M12 A3022 RMK A01 T10741121  RH  069%=      5-min Rain = 0
KPD1 121355Z 18006KT M07/M12 A3022 RMK A01 T10741122  RH  069%=      5-min Rain = 0
KPD1 121356Z 18005KT M07/M12 A3022 RMK A01 T10741122  RH  069%=      5-min Rain = 0
KPD1 121357Z 18005KT M07/M12 A3022 RMK A01 T10741122  RH  069%=      5-min Rain = 0
KPD1 121358Z 18006KT M07/M12 A3022 RMK A01 T10741121  RH  069%=      5-min Rain = 0
KPD1 121359Z 18005KT M07/M12 A3022 RMK A01 T10741121  RH  069%=      5-min Rain = 0
KPD1 121400Z 18005KT M07/M12 A3021 RMK A01 T10741121  RH  069%=      5-min Rain = 0
KPD1 121401Z 18005KT M07/M12 A3021 RMK A01 T10731121  RH  069%=      5-min Rain = 0
KPD1 121402Z 18005KT M07/M12 A3021 RMK A01 T10731120  RH  069%=      5-min Rain = 0
KPD1 121403Z 17005KT M07/M12 A3021 RMK A01 T10721120  RH  069%=      5-min Rain = 0
KPD1 121404Z 17004KT M07/M12 A3021 RMK A01 T10721120  RH  069%=      5-min Rain = 0
KPD1 121405Z 18005KT M07/M12 A3022 RMK A01 T10721120  RH  068%=      5-min Rain = 0
KPD1 121406Z 18005KT M07/M12 A3022 RMK A01 T10711120  RH  068%=      5-min Rain = 0
KPD1 121407Z 18005KT M07/M12 A3022 RMK A01 T10711120  RH  068%=      5-min Rain = 0
KPD1 121408Z 18004KT M07/M12 A3022 RMK A01 T10701119  RH  068%=      5-min Rain = 0
KPD1 121409Z 18005KT M07/M12 A3022 RMK A01 T10691120  RH  067%=      5-min Rain = 0
KPD1 121410Z 18004KT M07/M12 A3022 RMK A01 T10691120  RH  067%=      5-min Rain = 0
KPD1 121411Z 18004KT M07/M12 A3022 RMK A01 T10681119  RH  067%=      5-min Rain = 0
KPD1 121412Z 18004KT M07/M12 A3022 RMK A01 T10681119  RH  067%=      5-min Rain = 0
KPD1 121413Z 17004KT M07/M12 A3022 RMK A01 T10671119  RH  067%=      5-min Rain = 0
KPD1 121414Z 17004KT M07/M12 A3022 RMK A01 T10661118  RH  066%=      5-min Rain = 0
KPD1 121415Z 17004KT M07/M12 A3022 RMK A01 T10651118  RH  066%=      5-min Rain = 0
KPD1 121416Z 17004KT M07/M12 A3022 RMK A01 T10651118  RH  066%=      5-min Rain = 0
KPD1 121417Z 18004KT M06/M12 A3022 RMK A01 T10641118  RH  065%=      5-min Rain = 0
KPD1 121418Z 18004KT M06/M12 A3022 RMK A01 T10641118  RH  065%=      5-min Rain = 0
KPD1 121419Z 19004KT M06/M12 A3022 RMK A01 T10641119  RH  065%=      5-min Rain = 0
KPD1 121420Z 19005KT M06/M12 A3022 RMK A01 T10631118  RH  065%=      5-min Rain = 0
KPD1 121421Z 19004KT M06/M12 A3022 RMK A01 T10631118  RH  065%=      5-min Rain = 0
KPD1 121422Z 18004KT M06/M12 A3022 RMK A01 T10621118  RH  065%=      5-min Rain = 0
KPD1 121423Z 19004KT M06/M12 A3023 RMK A01 T10611117  RH  065%=      5-min Rain = 0
KPD1 121424Z 18004KT M06/M12 A3023 RMK A01 T10611117  RH  065%=      5-min Rain = 0
KPD1 121425Z 18004KT M06/M12 A3023 RMK A01 T10601116  RH  064%=      5-min Rain = 0
KPD1 121426Z 17003KT M06/M12 A3023 RMK A01 T10591116  RH  064%=      5-min Rain = 0
KPD1 121427Z 15004KT M06/M12 A3023 RMK A01 T10581116  RH  064%=      5-min Rain = 0
KPD1 121428Z 15005KT M06/M12 A3023 RMK A01 T10561115  RH  063%=      5-min Rain = 0
KPD1 121429Z 15004KT M05/M11 A3023 RMK A01 T10541114  RH  063%=      5-min Rain = 0
KPD1 121430Z 16004KT M05/M11 A3023 RMK A01 T10531113  RH  062%=      5-min Rain = 0
KPD1 121431Z 17004KT M05/M11 A3023 RMK A01 T10521114  RH  062%=      5-min Rain = 0
KPD1 121432Z 17005KT M05/M11 A3023 RMK A01 T10521114  RH  062%=      5-min Rain = 0
KPD1 121433Z 17005KT M05/M12 A3023 RMK A01 T10521115  RH  061%=      5-min Rain = 0
KPD1 121434Z 17006KT M05/M12 A3023 RMK A01 T10511115  RH  061%=      5-min Rain = 0
KPD1 121435Z 18005KT M05/M12 A3022 RMK A01 T10521115  RH  061%=      5-min Rain = 0
KPD1 121436Z 19005KT M05/M12 A3022 RMK A01 T10521115  RH  061%=      5-min Rain = 0
KPD1 121437Z 18006KT M05/M12 A3022 RMK A01 T10521115  RH  061%=      5-min Rain = 0
KPD1 121438Z 18006KT M05/M12 A3022 RMK A01 T10511115  RH  061%=      5-min Rain = 0
KPD1 121439Z 18006KT M05/M11 A3022 RMK A01 T10501114  RH  061%=      5-min Rain = 0
KPD1 121440Z 18006KT M05/M11 A3022 RMK A01 T10501114  RH  061%=      5-min Rain = 0
KPD1 121441Z 18006KT M05/M12 A3022 RMK A01 T10491115  RH  060%=      5-min Rain = 0
KPD1 121442Z 17005KT M05/M12 A3022 RMK A01 T10481115  RH  060%=      5-min Rain = 0
KPD1 121443Z 17004KT M05/M12 A3022 RMK A01 T10481115  RH  059%=      5-min Rain = 0
KPD1 121444Z 17004KT M05/M12 A3022 RMK A01 T10471115  RH  059%=      5-min Rain = 0
KPD1 121445Z 17003KT M05/M12 A3022 RMK A01 T10471115  RH  059%=      5-min Rain = 0
KPD1 121446Z 17004KT M05/M11 A3022 RMK A01 T10461114  RH  059%=      5-min Rain = 0
KPD1 121447Z 17004KT M05/M11 A3022 RMK A01 T10451114  RH  059%=      5-min Rain = 0
KPD1 121448Z 16004KT M05/M11 A3022 RMK A01 T10451114  RH  058%=      5-min Rain = 0
KPD1 121449Z 17004KT M05/M12 A3022 RMK A01 T10451115  RH  058%=      5-min Rain = 0
KPD1 121450Z 17005KT M05/M12 A3022 RMK A01 T10451116  RH  058%=      5-min Rain = 0
KPD1 121451Z 17004KT M05/M12 A3022 RMK A01 T10451116  RH  058%=      5-min Rain = 0
KPD1 121452Z 17005KT M05/M12 A3022 RMK A01 T10451116  RH  058%=      5-min Rain = 0
KPD1 121453Z 18004KT M05/M12 A3022 RMK A01 T10451115  RH  058%=      5-min Rain = 0
KPD1 121454Z 19005KT M05/M12 A3022 RMK A01 T10451115  RH  058%=      5-min Rain = 0
KPD1 121455Z 18005KT M05/M12 A3022 RMK A01 T10451115  RH  058%=      5-min Rain = 0
KPD1 121456Z 19004KT M05/M12 A3022 RMK A01 T10451115  RH  058%=      5-min Rain = 0
KPD1 121457Z 19003KT M05/M12 A3022 RMK A01 T10451115  RH  058%=      5-min Rain = 0
KPD1 121458Z 18005KT M04/M11 A3022 RMK A01 T10441113  RH  058%=      5-min Rain = 0
KPD1 121459Z 17005KT M04/M11 A3022 RMK A01 T10421112  RH  058%=      5-min Rain = 0
KPD1 121500Z 18006KT M04/M11 A3023 RMK A01 T10421113  RH  058%=      5-min Rain = 0
KPD1 121501Z 17006KT M04/M11 A3023 RMK A01 T10411113  RH  057%=      5-min Rain = 0
KPD1 121502Z 19005KT M04/M11 A3023 RMK A01 T10411114  RH  057%=      5-min Rain = 0
KPD1 121503Z 19004KT M04/M11 A3023 RMK A01 T10401114  RH  057%=      5-min Rain = 0
KPD1 121504Z 19005KT M04/M11 A3023 RMK A01 T10401114  RH  057%=      5-min Rain = 0
KPD1 121505Z 18006KT M04/M11 A3023 RMK A01 T10391112  RH  057%=      5-min Rain = 0
KPD1 121506Z 19007KT M04/M11 A3023 RMK A01 T10381112  RH  056%=      5-min Rain = 0
KPD1 121507Z 19007KT M04/M11 A3023 RMK A01 T10381113  RH  056%=      5-min Rain = 0
KPD1 121508Z 19005KT M04/M11 A3023 RMK A01 T10381113  RH  056%=      5-min Rain = 0
KPD1 121509Z 19004KT M04/M11 A3023 RMK A01 T10371112  RH  056%=      5-min Rain = 0
KPD1 121510Z 17005KT M04/M11 A3023 RMK A01 T10351111  RH  056%=      5-min Rain = 0
KPD1 121511Z 19005KT M03/M11 A3023 RMK A01 T10341111  RH  055%=      5-min Rain = 0
KPD1 121512Z 19005KT M03/M11 A3023 RMK A01 T10341112  RH  055%=      5-min Rain = 0
KPD1 121513Z 17004KT M04/M11 A3023 RMK A01 T10351114  RH  055%=      5-min Rain = 0
KPD1 121514Z 16004KT M04/M11 A3023 RMK A01 T10351113  RH  055%=      5-min Rain = 0
KPD1 121515Z 17005KT M03/M11 A3023 RMK A01 T10331112  RH  055%=      5-min Rain = 0
KPD1 121516Z 17004KT M03/M11 A3023 RMK A01 T10331112  RH  054%=      5-min Rain = 0
KPD1 121517Z 18004KT M03/M11 A3023 RMK A01 T10321112  RH  054%=      5-min Rain = 0
KPD1 121518Z 17004KT M03/M11 A3023 RMK A01 T10311111  RH  054%=      5-min Rain = 0
KPD1 121519Z 18005KT M03/M11 A3023 RMK A01 T10301111  RH  054%=      5-min Rain = 0
KPD1 121520Z 19006KT M03/M11 A3022 RMK A01 T10301112  RH  053%=      5-min Rain = 0
KPD1 121521Z 19007KT M03/M11 A3022 RMK A01 T10311112  RH  053%=      5-min Rain = 0
KPD1 121522Z 20008KT M03/M11 A3022 RMK A01 T10291111  RH  053%=      5-min Rain = 0
KPD1 121523Z 19007KT M03/M11 A3022 RMK A01 T10281109  RH  053%=      5-min Rain = 0
KPD1 121524Z 19007KT M03/M11 A3022 RMK A01 T10261108  RH  053%=      5-min Rain = 0
KPD1 121525Z 20008KT M03/M11 A3023 RMK A01 T10251109  RH  053%=      5-min Rain = 0
KPD1 121526Z 19008KT M03/M11 A3023 RMK A01 T10251110  RH  052%=      5-min Rain = 0
KPD1 121527Z 20008KT M02/M11 A3023 RMK A01 T10241109  RH  052%=      5-min Rain = 0
KPD1 121528Z 19008KT M02/M11 A3023 RMK A01 T10221107  RH  052%=      5-min Rain = 0
KPD1 121529Z 19009KT M02/M11 A3022 RMK A01 T10211107  RH  052%=      5-min Rain = 0
KPD1 121530Z 20008G13KT M02/M11 A3022 RMK A01 T10201107  RH  052%=      5-min Rain = 0
KPD1 121531Z 19008KT M02/M11 A3022 RMK A01 T10181105  RH  052%=      5-min Rain = 0
KPD1 121532Z 19009KT M02/M10 A3022 RMK A01 T10161104  RH  051%=      5-min Rain = 0
KPD1 121533Z 19010KT M02/M10 A3022 RMK A01 T10151103  RH  051%=      5-min Rain = 0
KPD1 121534Z 20009KT M01/M10 A3022 RMK A01 T10141104  RH  050%=      5-min Rain = 0
KPD1 121535Z 20008KT M02/M11 A3022 RMK A01 T10151105  RH  050%=      5-min Rain = 0
KPD1 121536Z 19008KT M02/M11 A3022 RMK A01 T10151105  RH  050%=      5-min Rain = 0
KPD1 121537Z 19008KT M01/M11 A3022 RMK A01 T10141105  RH  050%=      5-min Rain = 0
KPD1 121538Z 19009KT M01/M10 A3022 RMK A01 T10131104  RH  050%=      5-min Rain = 0
KPD1 121539Z 19009KT M01/M11 A3022 RMK A01 T10141105  RH  050%=      5-min Rain = 0
KPD1 121540Z 19009KT M01/M11 A3022 RMK A01 T10141105  RH  050%=      5-min Rain = 0
KPD1 121541Z 20008KT M01/M11 A3022 RMK A01 T10131105  RH  050%=      5-min Rain = 0
KPD1 121542Z 19009KT M01/M10 A3022 RMK A01 T10121104  RH  050%=      5-min Rain = 0
KPD1 121543Z 19008KT M01/M10 A3022 RMK A01 T10121104  RH  050%=      5-min Rain = 0
KPD1 121544Z 19009KT M01/M10 A3022 RMK A01 T10111104  RH  049%=      5-min Rain = 0
KPD1 121545Z 19008KT M01/M10 A3022 RMK A01 T10111104  RH  049%=      5-min Rain = 0
KPD1 121546Z 20008KT M01/M10 A3022 RMK A01 T10111103  RH  050%=      5-min Rain = 0
KPD1 121547Z 19008KT M01/M10 A3022 RMK A01 T10091102  RH  049%=      5-min Rain = 0
KPD1 121548Z 19008KT M01/M10 A3022 RMK A01 T10091103  RH  049%=      5-min Rain = 0
KPD1 121549Z 19010KT M01/M10 A3022 RMK A01 T10071102  RH  049%=      5-min Rain = 0
KPD1 121550Z 19010KT M01/M10 A3022 RMK A01 T10071103  RH  049%=      5-min Rain = 0
KPD1 121551Z 19010KT M01/M10 A3022 RMK A01 T10071103  RH  048%=      5-min Rain = 0
KPD1 121552Z 20010KT M01/M10 A3022 RMK A01 T10081103  RH  048%=      5-min Rain = 0
KPD1 121553Z 18007KT M01/M10 A3022 RMK A01 T10081103  RH  048%=      5-min Rain = 0
KPD1 121554Z 19009KT M01/M10 A3022 RMK A01 T10071102  RH  049%=      5-min Rain = 0
KPD1 121555Z 19008KT M01/M10 A3022 RMK A01 T10061102  RH  048%=      5-min Rain = 0
KPD1 121556Z 19011KT M01/M10 A3022 RMK A01 T10051102  RH  048%=      5-min Rain = 0
KPD1 121557Z 19008KT M01/M10 A3022 RMK A01 T10051102  RH  048%=      5-min Rain = 0
KPD1 121558Z 19009KT M00/M10 A3022 RMK A01 T10041101  RH  048%=      5-min Rain = 0
KPD1 121559Z 19010KT M00/M10 A3022 RMK A01 T10021100  RH  048%=      5-min Rain = 0
KPD1 121600Z 20013KT M00/M10 A3022 RMK A01 T10011101  RH  047%=      5-min Rain = 0
KPD1 121601Z 19011KT 00/M10 A3022 RMK A01 T00011100  RH  047%=      5-min Rain = 0
KPD1 121602Z 20009KT 00/M10 A3022 RMK A01 T00031098  RH  046%=      5-min Rain = 0
KPD1 121603Z 19009KT 01/M10 A3022 RMK A01 T00061097  RH  046%=      5-min Rain = 0
KPD1 121604Z 20011KT 01/M10 A3022 RMK A01 T00081097  RH  045%=      5-min Rain = 0
KPD1 121605Z 19008G13KT 01/M10 A3022 RMK A01 T00081098  RH  045%=      5-min Rain = 0
KPD1 121606Z 19010KT 01/M10 A3022 RMK A01 T00091098  RH  045%=      5-min Rain = 0
KPD1 121607Z 19010KT 01/M10 A3022 RMK A01 T00101099  RH  044%=      5-min Rain = 0
KPD1 121608Z 19010KT 01/M10 A3021 RMK A01 T00101099  RH  044%=      5-min Rain = 0
KPD1 121609Z 19010KT 01/M10 A3021 RMK A01 T00111099  RH  044%=      5-min Rain = 0
KPD1 121610Z 19013KT 01/M10 A3021 RMK A01 T00111099  RH  044%=      5-min Rain = 0
KPD1 121611Z 19015KT 01/M10 A3021 RMK A01 T00121099  RH  043%=      5-min Rain = 0
KPD1 121612Z 20010KT 01/M10 A3021 RMK A01 T00121099  RH  043%=      5-min Rain = 0
KPD1 121613Z 20015KT 01/M10 A3021 RMK A01 T00141098  RH  043%=      5-min Rain = 0
KPD1 121614Z 19013G18KT 02/M10 A3021 RMK A01 T00151098  RH  043%=      5-min Rain = 0
KPD1 121615Z 19015G20KT 02/M10 A3021 RMK A01 T00161098  RH  042%=      5-min Rain = 0
KPD1 121616Z 19016KT 02/M10 A3021 RMK A01 T00171099  RH  042%=      5-min Rain = 0
KPD1 121617Z 19017KT 02/M10 A3021 RMK A01 T00171100  RH  041%=      5-min Rain = 0
KPD1 121618Z 19014G19KT 02/M10 A3022 RMK A01 T00181100  RH  041%=      5-min Rain = 0
KPD1 121619Z 19016KT 02/M10 A3022 RMK A01 T00191099  RH  041%=      5-min Rain = 0
KPD1 121620Z 19014KT 02/M10 A3022 RMK A01 T00201100  RH  041%=      5-min Rain = 0
KPD1 121621Z 18017KT 02/M10 A3022 RMK A01 T00211101  RH  040%=      5-min Rain = 0
KPD1 121622Z 19015G20KT 02/M10 A3022 RMK A01 T00211102  RH  040%=      5-min Rain = 0
KPD1 121623Z 19012KT 02/M10 A3022 RMK A01 T00211101  RH  040%=      5-min Rain = 0
KPD1 121624Z 19012G20KT 02/M10 A3022 RMK A01 T00221101  RH  040%=      5-min Rain = 0
KPD1 121625Z 20016KT 02/M10 A3022 RMK A01 T00231100  RH  040%=      5-min Rain = 0
KPD1 121626Z 20013G18KT 02/M10 A3022 RMK A01 T00241101  RH  039%=      5-min Rain = 0
KPD1 121627Z 19012G17KT 02/M10 A3022 RMK A01 T00231102  RH  039%=      5-min Rain = 0
KPD1 121628Z 19014G19KT 02/M10 A3022 RMK A01 T00241100  RH  039%=      5-min Rain = 0
KPD1 121629Z 19014KT 03/M10 A3022 RMK A01 T00251101  RH  039%=      5-min Rain = 0
KPD1 121630Z 19012KT 03/M10 A3022 RMK A01 T00251101  RH  039%=      5-min Rain = 0
KPD1 121631Z 19015KT 03/M10 A3022 RMK A01 T00271100  RH  039%=      5-min Rain = 0
KPD1 121632Z 19014G21KT 03/M10 A3022 RMK A01 T00271101  RH  038%=      5-min Rain = 0
KPD1 121633Z 18015G20KT 03/M10 A3022 RMK A01 T00271102  RH  038%=      5-min Rain = 0
KPD1 121634Z 19018KT 03/M10 A3022 RMK A01 T00271102  RH  038%=      5-min Rain = 0
KPD1 121635Z 19017KT 03/M10 A3022 RMK A01 T00271103  RH  038%=      5-min Rain = 0
KPD1 121636Z 19015KT 03/M10 A3022 RMK A01 T00271103  RH  038%=      5-min Rain = 0
KPD1 121637Z 20018KT 03/M10 A3022 RMK A01 T00271103  RH  038%=      5-min Rain = 0
KPD1 121638Z 21017KT 03/M10 A3022 RMK A01 T00271103  RH  038%=      5-min Rain = 0
KPD1 121639Z 21013G19KT 03/M10 A3022 RMK A01 T00281103  RH  038%=      5-min Rain = 0
KPD1 121640Z 20010KT 03/M10 A3022 RMK A01 T00281102  RH  038%=      5-min Rain = 0
KPD1 121641Z 19012KT 03/M10 A3022 RMK A01 T00311099  RH  038%=      5-min Rain = 0
KPD1 121642Z 20012KT 03/M10 A3022 RMK A01 T00331098  RH  038%=      5-min Rain = 0
KPD1 121643Z 20014KT 03/M10 A3022 RMK A01 T00341098  RH  037%=      5-min Rain = 0
KPD1 121644Z 20014KT 03/M10 A3022 RMK A01 T00331099  RH  037%=      5-min Rain = 0
KPD1 121645Z 19012KT 03/M10 A3022 RMK A01 T00331099  RH  037%=      5-min Rain = 0
KPD1 121646Z 21012KT 04/M10 A3022 RMK A01 T00351097  RH  037%=      5-min Rain = 0
KPD1 121647Z 20012KT 04/M10 A3022 RMK A01 T00351098  RH  037%=      5-min Rain = 0
KPD1 121648Z 20011KT 04/M10 A3022 RMK A01 T00351099  RH  037%=      5-min Rain = 0
KPD1 121649Z 18010KT 04/M10 A3022 RMK A01 T00371097  RH  037%=      5-min Rain = 0
KPD1 121650Z 19013KT 04/M10 A3022 RMK A01 T00381097  RH  037%=      5-min Rain = 0
KPD1 121651Z 19017KT 04/M10 A3022 RMK A01 T00381099  RH  036%=      5-min Rain = 0
KPD1 121652Z 19013KT 04/M10 A3021 RMK A01 T00351102  RH  036%=      5-min Rain = 0
KPD1 121653Z 20014G19KT 03/M10 A3021 RMK A01 T00341100  RH  037%=      5-min Rain = 0
KPD1 121654Z 19011KT 04/M10 A3021 RMK A01 T00351100  RH  037%=      5-min Rain = 0
KPD1 121655Z 20010KT 04/M10 A3021 RMK A01 T00351099  RH  037%=      5-min Rain = 0
KPD1 121656Z 18012KT 04/M10 A3021 RMK A01 T00381096  RH  037%=      5-min Rain = 0
KPD1 121657Z 17016KT 04/M10 A3021 RMK A01 T00391098  RH  036%=      5-min Rain = 0
KPD1 121658Z 18014KT 04/M10 A3021 RMK A01 T00381100  RH  036%=      5-min Rain = 0
KPD1 121659Z 17014KT 04/M10 A3021 RMK A01 T00381100  RH  036%=      5-min Rain = 0
KPD1 121700Z 19010KT 04/M10 A3021 RMK A01 T00381101  RH  036%=      5-min Rain = 0
KPD1 121701Z 19010KT 04/M10 A3021 RMK A01 T00401097  RH  036%=      5-min Rain = 0
KPD1 121702Z 18011KT 04/M10 A3021 RMK A01 T00441096  RH  035%=      5-min Rain = 0
KPD1 121703Z 18014KT 05/M10 A3021 RMK A01 T00451100  RH  034%=      5-min Rain = 0
KPD1 121704Z 18014KT 04/M10 A302 RMK A01 T00431104  RH  033%=      5-min Rain = 0
KPD1 121705Z 19016KT 04/M10 A302 RMK A01 T00421104  RH  034%=      5-min Rain = 0
KPD1 121706Z 18014G19KT 04/M10 A302 RMK A01 T00421104  RH  033%=      5-min Rain = 0
KPD1 121707Z 19015KT 04/M11 A302 RMK A01 T00421105  RH  033%=      5-min Rain = 0
KPD1 121708Z 19013G18KT 04/M11 A302 RMK A01 T00421106  RH  033%=      5-min Rain = 0
KPD1 121709Z 18014KT 04/M11 A302 RMK A01 T00421106  RH  033%=      5-min Rain = 0
KPD1 121710Z 18015G20KT 04/M11 A302 RMK A01 T00421106  RH  033%=      5-min Rain = 0
KPD1 121711Z 18016KT 04/M11 A302 RMK A01 T00431106  RH  033%=      5-min Rain = 0
KPD1 121712Z 19013G19KT 04/M11 A302 RMK A01 T00421108  RH  033%=      5-min Rain = 0
KPD1 121713Z 20014KT 04/M11 A302 RMK A01 T00431107  RH  033%=      5-min Rain = 0
KPD1 121714Z 20012KT 05/M11 A302 RMK A01 T00461105  RH  032%=      5-min Rain = 0
KPD1 121715Z 20013KT 05/M11 A302 RMK A01 T00461106  RH  032%=      5-min Rain = 0
KPD1 121716Z 18010G16KT 05/M11 A302 RMK A01 T00481105  RH  032%=      5-min Rain = 0
KPD1 121717Z 18018KT 05/M11 A302 RMK A01 T00511106  RH  031%=      5-min Rain = 0
KPD1 121718Z 18017G22KT 05/M11 A302 RMK A01 T00491112  RH  030%=      5-min Rain = 0
KPD1 121719Z 19017KT 05/M11 A302 RMK A01 T00471114  RH  030%=      5-min Rain = 0
KPD1 121720Z 19016KT 05/M11 A302 RMK A01 T00471113  RH  030%=      5-min Rain = 0
KPD1 121721Z 19017G22KT 05/M11 A302 RMK A01 T00481112  RH  030%=      5-min Rain = 0
KPD1 121722Z 19015KT 05/M11 A302 RMK A01 T00471113  RH  030%=      5-min Rain = 0
KPD1 121723Z 20015KT 05/M11 A3019 RMK A01 T00471112  RH  031%=      5-min Rain = 0
KPD1 121724Z 19013KT 05/M11 A3019 RMK A01 T00471111  RH  031%=      5-min Rain = 0
KPD1 121725Z 20014KT 05/M11 A3019 RMK A01 T00501109  RH  031%=      5-min Rain = 0
KPD1 121726Z 20015KT 05/M11 A3019 RMK A01 T00501110  RH  030%=      5-min Rain = 0
KPD1 121727Z 20012KT 05/M11 A3019 RMK A01 T00501111  RH  030%=      5-min Rain = 0
KPD1 121728Z 19016G21KT 05/M11 A3019 RMK A01 T00511110  RH  030%=      5-min Rain = 0
KPD1 121729Z 20014KT 05/M11 A3019 RMK A01 T00521111  RH  030%=      5-min Rain = 0
KPD1 121730Z 19010G15KT 05/M11 A3019 RMK A01 T00521111  RH  030%=      5-min Rain = 0
KPD1 121731Z 18014KT 05/M11 A3019 RMK A01 T00541109  RH  030%=      5-min Rain = 0
KPD1 121732Z 18014G20KT 06/M11 A3019 RMK A01 T00561110  RH  029%=      5-min Rain = 0
KPD1 121733Z 19015KT 06/M11 A3019 RMK A01 T00551111  RH  029%=      5-min Rain = 0
KPD1 121734Z 17016KT 05/M11 A3019 RMK A01 T00541112  RH  029%=      5-min Rain = 0
KPD1 121735Z 17016KT 05/M11 A3019 RMK A01 T00541112  RH  029%=      5-min Rain = 0
KPD1 121736Z 18012G19KT 05/M11 A3018 RMK A01 T00541111  RH  029%=      5-min Rain = 0
KPD1 121737Z 19017KT 06/M11 A3018 RMK A01 T00561110  RH  029%=      5-min Rain = 0
KPD1 121738Z 18012KT 06/M11 A3018 RMK A01 T00551113  RH  029%=      5-min Rain = 0
KPD1 121739Z 19015G21KT 05/M11 A3018 RMK A01 T00541112  RH  029%=      5-min Rain = 0
KPD1 121740Z 19018KT 05/M11 A3018 RMK A01 T00541113  RH  029%=      5-min Rain = 0
KPD1 121741Z 18014KT 05/M11 A3018 RMK A01 T00521114  RH  029%=      5-min Rain = 0
KPD1 121742Z 18011G16KT 05/M11 A3018 RMK A01 T00541111  RH  029%=      5-min Rain = 0
KPD1 121743Z 18015KT 06/M11 A3018 RMK A01 T00571109  RH  029%=      5-min Rain = 0
KPD1 121744Z 19015KT 06/M11 A3018 RMK A01 T00571111  RH  029%=      5-min Rain = 0
KPD1 121745Z 19011G16KT 06/M11 A3018 RMK A01 T00561112  RH  029%=      5-min Rain = 0
KPD1 121746Z 19014G19KT 06/M11 A3018 RMK A01 T00561111  RH  029%=      5-min Rain = 0
KPD1 121747Z 20012G18KT 06/M11 A3018 RMK A01 T00571111  RH  029%=      5-min Rain = 0
KPD1 121748Z 18013KT 06/M11 A3018 RMK A01 T00581111  RH  029%=      5-min Rain = 0
KPD1 121749Z 18010KT 06/M11 A3018 RMK A01 T00591110  RH  029%=      5-min Rain = 0
KPD1 121750Z 19014G19KT 06/M11 A3018 RMK A01 T00621108  RH  028%=      5-min Rain = 0
KPD1 121751Z 19013G19KT 06/M11 A3018 RMK A01 T00611111  RH  028%=      5-min Rain = 0
KPD1 121752Z 19015KT 06/M11 A3018 RMK A01 T00591112  RH  028%=      5-min Rain = 0
KPD1 121753Z 21016KT 06/M11 A3018 RMK A01 T00581112  RH  028%=      5-min Rain = 0
KPD1 121754Z 20011G16KT 06/M11 A3017 RMK A01 T00561113  RH  028%=      5-min Rain = 0
KPD1 121755Z 18012KT 06/M11 A3017 RMK A01 T00571111  RH  029%=      5-min Rain = 0
KPD1 121756Z 19012KT 06/M11 A3017 RMK A01 T00611108  RH  029%=      5-min Rain = 0
KPD1 121757Z 19015G20KT 06/M11 A3017 RMK A01 T00631109  RH  028%=      5-min Rain = 0
KPD1 121758Z 20014KT 06/M11 A3017 RMK A01 T00641110  RH  028%=      5-min Rain = 0
KPD1 121759Z 19015KT 06/M11 A3017 RMK A01 T00631110  RH  028%=      5-min Rain = 0
KPD1 121800Z 19015G21KT 06/M11 A3017 RMK A01 T00631110  RH  028%=      5-min Rain = 0
KPD1 121801Z 19016G21KT 06/M11 A3017 RMK A01 T00621111  RH  028%=      5-min Rain = 0
KPD1 121802Z 19015G21KT 06/M11 A3017 RMK A01 T00611112  RH  028%=      5-min Rain = 0
KPD1 121803Z 19011G16KT 06/M11 A3017 RMK A01 T00611111  RH  028%=      5-min Rain = 0
KPD1 121804Z 20011KT 06/M11 A3017 RMK A01 T00621110  RH  028%=      5-min Rain = 0
KPD1 121805Z 19013KT 06/M11 A3017 RMK A01 T00641109  RH  028%=      5-min Rain = 0
KPD1 121806Z 18013KT 07/M11 A3017 RMK A01 T00661109  RH  027%=      5-min Rain = 0
KPD1 121807Z 19013G18KT 07/M11 A3017 RMK A01 T00671109  RH  027%=      5-min Rain = 0
KPD1 121808Z 20014KT 07/M11 A3017 RMK A01 T00671109  RH  027%=      5-min Rain = 0
KPD1 121809Z 21014G21KT 07/M11 A3016 RMK A01 T00681109  RH  027%=      5-min Rain = 0
KPD1 121810Z 20016KT 07/M11 A3016 RMK A01 T00671110  RH  027%=      5-min Rain = 0
KPD1 121811Z 19011KT 07/M11 A3016 RMK A01 T00661111  RH  027%=      5-min Rain = 0
KPD1 121812Z 20012G17KT 07/M11 A3016 RMK A01 T00681108  RH  027%=      5-min Rain = 0
KPD1 121813Z 19016KT 07/M11 A3016 RMK A01 T00721106  RH  027%=      5-min Rain = 0
KPD1 121814Z 19016G21KT 07/M11 A3016 RMK A01 T00711109  RH  027%=      5-min Rain = 0
KPD1 121815Z 19014G19KT 07/M11 A3016 RMK A01 T00681110  RH  027%=      5-min Rain = 0
KPD1 121816Z 20016G23KT 07/M11 A3016 RMK A01 T00681110  RH  027%=      5-min Rain = 0
KPD1 121817Z 19017KT 07/M11 A3016 RMK A01 T00691109  RH  027%=      5-min Rain = 0
KPD1 121818Z 19018G25KT 07/M11 A3015 RMK A01 T00661112  RH  027%=      5-min Rain = 0
KPD1 121819Z 19016G21KT 07/M11 A3015 RMK A01 T00651111  RH  027%=      5-min Rain = 0
KPD1 121820Z 19017G22KT 07/M11 A3015 RMK A01 T00661110  RH  027%=      5-min Rain = 0
KPD1 121821Z 19018KT 07/M11 A3015 RMK A01 T00661110  RH  027%=      5-min Rain = 0
KPD1 121822Z 19017KT 07/M11 A3015 RMK A01 T00661110  RH  027%=      5-min Rain = 0
KPD1 121823Z 19015KT 07/M11 A3015 RMK A01 T00661109  RH  027%=      5-min Rain = 0
KPD1 121824Z 18015G22KT 07/M11 A3015 RMK A01 T00661110  RH  027%=      5-min Rain = 0
KPD1 121825Z 20012G17KT 07/M11 A3015 RMK A01 T00671109  RH  027%=      5-min Rain = 0
KPD1 121826Z 20010G15KT 07/M11 A3014 RMK A01 T00701106  RH  027%=      5-min Rain = 0
KPD1 121827Z 19010KT 07/M10 A3014 RMK A01 T00731104  RH  027%=      5-min Rain = 0
KPD1 121828Z 19011KT 08/M10 A3014 RMK A01 T00751104  RH  027%=      5-min Rain = 0
KPD1 121829Z 19014KT 08/M10 A3014 RMK A01 T00761104  RH  027%=      5-min Rain = 0
KPD1 121830Z 20017KT 08/M11 A3014 RMK A01 T00751105  RH  027%=      5-min Rain = 0
KPD1 121831Z 18016KT 07/M11 A3014 RMK A01 T00741106  RH  027%=      5-min Rain = 0
KPD1 121832Z 18016KT 07/M11 A3014 RMK A01 T00711107  RH  027%=      5-min Rain = 0
KPD1 121833Z 20012KT 07/M11 A3014 RMK A01 T00701106  RH  027%=      5-min Rain = 0
KPD1 121834Z 20014KT 07/M10 A3014 RMK A01 T00711104  RH  028%=      5-min Rain = 0
KPD1 121835Z 20016KT 07/M10 A3014 RMK A01 T00721104  RH  027%=      5-min Rain = 0
KPD1 121836Z 18016G24KT 07/M11 A3014 RMK A01 T00721105  RH  027%=      5-min Rain = 0
KPD1 121837Z 19016KT 07/M10 A3014 RMK A01 T00731104  RH  027%=      5-min Rain = 0
KPD1 121838Z 20014G19KT 07/M11 A3014 RMK A01 T00711106  RH  027%=      5-min Rain = 0
KPD1 121839Z 20011KT 07/M10 A3014 RMK A01 T00711104  RH  028%=      5-min Rain = 0
KPD1 121840Z 20012G17KT 07/M10 A3014 RMK A01 T00741101  RH  027%=      5-min Rain = 0
KPD1 121841Z 18014G19KT 08/M10 A3014 RMK A01 T00761102  RH  027%=      5-min Rain = 0
KPD1 121842Z 19016KT 08/M10 A3013 RMK A01 T00761103  RH  027%=      5-min Rain = 0
KPD1 121843Z 19011G17KT 08/M10 A3013 RMK A01 T00751103  RH  027%=      5-min Rain = 0
KPD1 121844Z 19014G19KT 08/M10 A3013 RMK A01 T00771102  RH  027%=      5-min Rain = 0
KPD1 121845Z 19018G24KT 08/M10 A3013 RMK A01 T00781102  RH  027%=      5-min Rain = 0
KPD1 121846Z 20017KT 08/M10 A3013 RMK A01 T00771104  RH  027%=      5-min Rain = 0
KPD1 121847Z 20013G19KT 08/M10 A3013 RMK A01 T00761103  RH  027%=      5-min Rain = 0
KPD1 121848Z 20012KT 08/M10 A3013 RMK A01 T00761103  RH  027%=      5-min Rain = 0
KPD1 121849Z 20016G22KT 08/M10 A3013 RMK A01 T00761102  RH  027%=      5-min Rain = 0
KPD1 121850Z 20018KT 08/M10 A3013 RMK A01 T00761102  RH  027%=      5-min Rain = 0
KPD1 121851Z 20017KT 08/M10 A3013 RMK A01 T00751103  RH  027%=      5-min Rain = 0
KPD1 121852Z 20014G19KT 07/M10 A3013 RMK A01 T00731104  RH  027%=      5-min Rain = 0
KPD1 121853Z 19016KT 07/M10 A3013 RMK A01 T00731102  RH  028%=      5-min Rain = 0
KPD1 121854Z 20017KT 07/M10 A3013 RMK A01 T00741102  RH  027%=      5-min Rain = 0
KPD1 121855Z 20013G19KT 07/M10 A3013 RMK A01 T00741102  RH  027%=      5-min Rain = 0
KPD1 121856Z 21013KT 08/M10 A3013 RMK A01 T00761101  RH  027%=      5-min Rain = 0
KPD1 121857Z 21019KT 08/M10 A3013 RMK A01 T00781100  RH  027%=      5-min Rain = 0
KPD1 121858Z 21018KT 08/M10 A3013 RMK A01 T00781101  RH  027%=      5-min Rain = 0
KPD1 121859Z 20014KT 08/M10 A3013 RMK A01 T00771102  RH  027%=      5-min Rain = 0
KPD1 121900Z 21015G21KT 08/M10 A3013 RMK A01 T00761102  RH  027%=      5-min Rain = 0
KPD1 121901Z 20013G18KT 08/M10 A3013 RMK A01 T00771101  RH  027%=      5-min Rain = 0
KPD1 121902Z 19013KT 08/M10 A3013 RMK A01 T00791100  RH  027%=      5-min Rain = 0
KPD1 121903Z 20016KT 08/M10 A3013 RMK A01 T00791100  RH  027%=      5-min Rain = 0
KPD1 121904Z 21013G18KT 08/M10 A3013 RMK A01 T00771101  RH  027%=      5-min Rain = 0
KPD1 121905Z 20012KT 08/M10 A3013 RMK A01 T00781099  RH  027%=      5-min Rain = 0
KPD1 121906Z 20010KT 08/M10 A3013 RMK A01 T00801098  RH  027%=      5-min Rain = 0
KPD1 121907Z 19013KT 08/M10 A3013 RMK A01 T00821098  RH  027%=      5-min Rain = 0
KPD1 121908Z 20012KT 08/M10 A3013 RMK A01 T00831099  RH  026%=      5-min Rain = 0
KPD1 121909Z 20014G19KT 08/M10 A3013 RMK A01 T00831099  RH  027%=      5-min Rain = 0
KPD1 121910Z 19016KT 08/M10 A3013 RMK A01 T00831098  RH  027%=      5-min Rain = 0
KPD1 121911Z 20016G22KT 08/M10 A3012 RMK A01 T00821100  RH  026%=      5-min Rain = 0
KPD1 121912Z 21013KT 08/M10 A3012 RMK A01 T00791101  RH  027%=      5-min Rain = 0
KPD1 121913Z 20011KT 08/M10 A3012 RMK A01 T00791099  RH  027%=      5-min Rain = 0
KPD1 121914Z 19015KT 08/M10 A3012 RMK A01 T00831097  RH  027%=      5-min Rain = 0
KPD1 121915Z 19015G21KT 08/M10 A3012 RMK A01 T00821100  RH  026%=      5-min Rain = 0
KPD1 121916Z 19015KT 08/M10 A3012 RMK A01 T00801102  RH  026%=      5-min Rain = 0
KPD1 121917Z 20013KT 08/M10 A3012 RMK A01 T00801102  RH  026%=      5-min Rain = 0
KPD1 121918Z 20012G17KT 08/M10 A3012 RMK A01 T00791102  RH  026%=      5-min Rain = 0
KPD1 121919Z 20010KT 08/M10 A3012 RMK A01 T00811099  RH  027%=      5-min Rain = 0
KPD1 121920Z 20011KT 08/M10 A3012 RMK A01 T00841099  RH  026%=      5-min Rain = 0
KPD1 121921Z 19014KT 09/M10 A3012 RMK A01 T00851099  RH  026%=      5-min Rain = 0
KPD1 121922Z 19013KT 09/M10 A3012 RMK A01 T00851100  RH  026%=      5-min Rain = 0
KPD1 121923Z 20016G22KT 09/M10 A3012 RMK A01 T00851100  RH  026%=      5-min Rain = 0
KPD1 121924Z 20014KT 08/M10 A3012 RMK A01 T00831101  RH  026%=      5-min Rain = 0
KPD1 121925Z 19014KT 08/M10 A3012 RMK A01 T00831101  RH  026%=      5-min Rain = 0
KPD1 121926Z 19012G17KT 08/M10 A3012 RMK A01 T00831102  RH  026%=      5-min Rain = 0
KPD1 121927Z 18014KT 08/M10 A3012 RMK A01 T00821101  RH  026%=      5-min Rain = 0
KPD1 121928Z 19011KT 08/M10 A3012 RMK A01 T00821101  RH  026%=      5-min Rain = 0
KPD1 121929Z 17011KT 09/M10 A3012 RMK A01 T00851099  RH  026%=      5-min Rain = 0
KPD1 121930Z 18014G19KT 09/M10 A3012 RMK A01 T00861099  RH  026%=      5-min Rain = 0
KPD1 121931Z 18016KT 09/M10 A3012 RMK A01 T00861099  RH  026%=      5-min Rain = 0
KPD1 121932Z 18011G16KT 08/M10 A3012 RMK A01 T00831101  RH  026%=      5-min Rain = 0
KPD1 121933Z 19011KT 08/M10 A3012 RMK A01 T00841099  RH  026%=      5-min Rain = 0
KPD1 121934Z 19014G20KT 09/M10 A3012 RMK A01 T00851099  RH  026%=      5-min Rain = 0
KPD1 121935Z 18017G22KT 09/M10 A3011 RMK A01 T00851099  RH  026%=      5-min Rain = 0
KPD1 121936Z 20013KT 09/M10 A3011 RMK A01 T00851100  RH  026%=      5-min Rain = 0
KPD1 121937Z 18013G20KT 08/M10 A3011 RMK A01 T00841100  RH  026%=      5-min Rain = 0
KPD1 121938Z 18016KT 09/M10 A3011 RMK A01 T00861098  RH  026%=      5-min Rain = 0
KPD1 121939Z 19016KT 09/M10 A3011 RMK A01 T00871099  RH  026%=      5-min Rain = 0
KPD1 121940Z 19009KT 09/M10 A3011 RMK A01 T00861100  RH  026%=      5-min Rain = 0
KPD1 121941Z 21011KT 09/M10 A3011 RMK A01 T00861099  RH  026%=      5-min Rain = 0
KPD1 121942Z 20009KT 09/M10 A3011 RMK A01 T00881097  RH  026%=      5-min Rain = 0
KPD1 121943Z 19011KT 09/M10 A3011 RMK A01 T00921096  RH  025%=      5-min Rain = 0
KPD1 121944Z 18009G14KT 09/M10 A3011 RMK A01 T00911099  RH  025%=      5-min Rain = 0
KPD1 121945Z 17013KT 09/M10 A3011 RMK A01 T00911098  RH  025%=      5-min Rain = 0
KPD1 121946Z 18013KT 09/M10 A3011 RMK A01 T00921097  RH  025%=      5-min Rain = 0
KPD1 121947Z 20014KT 09/M10 A3011 RMK A01 T00911099  RH  025%=      5-min Rain = 0
KPD1 121948Z 19016G21KT 09/M10 A3011 RMK A01 T00881102  RH  025%=      5-min Rain = 0
KPD1 121949Z 19011KT 09/M10 A3011 RMK A01 T00871101  RH  025%=      5-min Rain = 0
KPD1 121950Z 18014KT 09/M10 A3011 RMK A01 T00891099  RH  025%=      5-min Rain = 0
KPD1 121951Z 18013KT 09/M10 A3011 RMK A01 T00881100  RH  025%=      5-min Rain = 0
KPD1 121952Z 19008G14KT 09/M10 A3011 RMK A01 T00871101  RH  025%=      5-min Rain = 0
KPD1 121953Z 19013KT 09/M10 A3011 RMK A01 T00881099  RH  026%=      5-min Rain = 0
KPD1 121954Z 19014KT 09/M10 A3011 RMK A01 T00901099  RH  025%=      5-min Rain = 0
KPD1 121955Z 19011KT 09/M10 A3011 RMK A01 T00901100  RH  025%=      5-min Rain = 0
KPD1 121956Z 19015G20KT 09/M10 A3011 RMK A01 T00911100  RH  025%=      5-min Rain = 0
KPD1 121957Z 19012KT 09/M10 A3011 RMK A01 T00911100  RH  025%=      5-min Rain = 0
KPD1 121958Z 19011G17KT 09/M10 A3011 RMK A01 T00911100  RH  025%=      5-min Rain = 0
KPD1 121959Z 20013KT 09/M10 A3011 RMK A01 T00941099  RH  025%=      5-min Rain = 0
KPD1 122000Z 20011KT 09/M10 A3011 RMK A01 T00941100  RH  024%=      5-min Rain = 0
KPD1 122001Z 20012KT 09/M10 A3011 RMK A01 T00931100  RH  024%=      5-min Rain = 0
KPD1 122002Z 20011G17KT 09/M10 A3011 RMK A01 T00931100  RH  025%=      5-min Rain = 0
KPD1 122003Z 18015KT 09/M10 A3011 RMK A01 T00941099  RH  024%=      5-min Rain = 0
KPD1 122004Z 18014KT 09/M10 A3011 RMK A01 T00941101  RH  024%=      5-min Rain = 0
KPD1 122005Z 18015KT 09/M10 A3011 RMK A01 T00921102  RH  024%=      5-min Rain = 0
KPD1 122006Z 17015KT 09/M10 A3011 RMK A01 T00881104  RH  025%=      5-min Rain = 0
KPD1 122007Z 18013KT 09/M10 A301 RMK A01 T00891102  RH  025%=      5-min Rain = 0
KPD1 122008Z 18011KT 09/M10 A301 RMK A01 T00921100  RH  025%=      5-min Rain = 0
KPD1 122009Z 18011KT 09/M10 A301 RMK A01 T00931100  RH  024%=      5-min Rain = 0
KPD1 122010Z 19009KT 10/M10 A301 RMK A01 T00951098  RH  025%=      5-min Rain = 0
KPD1 122011Z 18009KT 10/M10 A301 RMK A01 T00981098  RH  024%=      5-min Rain = 0
KPD1 122012Z 17009KT 10/M10 A301 RMK A01 T00981099  RH  024%=      5-min Rain = 0
KPD1 122013Z 17011G16KT 10/M10 A301 RMK A01 T00981100  RH  024%=      5-min Rain = 0
KPD1 122014Z 17013G18KT 10/M10 A301 RMK A01 T00981097  RH  024%=      5-min Rain = 0
KPD1 122015Z 19012G17KT 10/M10 A301 RMK A01 T01001095  RH  024%=      5-min Rain = 0
KPD1 122016Z 19012KT 10/M10 A301 RMK A01 T01011096  RH  024%=      5-min Rain = 0
KPD1 122017Z 20011KT 10/M10 A301 RMK A01 T01001098  RH  024%=      5-min Rain = 0
KPD1 122018Z 18015KT 10/M10 A301 RMK A01 T00981098  RH  024%=      5-min Rain = 0
KPD1 122019Z 18012G17KT 10/M10 A301 RMK A01 T00971099  RH  024%=      5-min Rain = 0
KPD1 122020Z 17016G22KT 10/M10 A301 RMK A01 T00971097  RH  024%=      5-min Rain = 0
KPD1 122021Z 18015G21KT 10/M10 A301 RMK A01 T00971097  RH  024%=      5-min Rain = 0
KPD1 122022Z 19015G20KT 10/M10 A301 RMK A01 T00961097  RH  024%=      5-min Rain = 0
KPD1 122023Z 19014G20KT 10/M10 A301 RMK A01 T00961097  RH  025%=      5-min Rain = 0
KPD1 122024Z 20016G21KT 10/M10 A301 RMK A01 T00971096  RH  025%=      5-min Rain = 0
KPD1 122025Z 18014G19KT 10/M10 A301 RMK A01 T00971096  RH  025%=      5-min Rain = 0
KPD1 122026Z 19015KT 10/M10 A301 RMK A01 T00961096  RH  025%=      5-min Rain = 0
KPD1 122027Z 19012KT 10/M10 A301 RMK A01 T00951096  RH  025%=      5-min Rain = 0
KPD1 122028Z 19013KT 10/M10 A301 RMK A01 T00961095  RH  025%=      5-min Rain = 0
KPD1 122029Z 18011KT 10/M09 A301 RMK A01 T00971094  RH  025%=      5-min Rain = 0
KPD1 122030Z 20011KT 10/M10 A301 RMK A01 T00981095  RH  025%=      5-min Rain = 0
KPD1 122031Z 20012G19KT 10/M09 A301 RMK A01 T00991094  RH  025%=      5-min Rain = 0
KPD1 122032Z 21014G19KT 10/M09 A301 RMK A01 T01001094  RH  025%=      5-min Rain = 0
KPD1 122033Z 20014G20KT 10/M10 A301 RMK A01 T00991095  RH  024%=      5-min Rain = 0
KPD1 122034Z 20013KT 10/M10 A301 RMK A01 T00991095  RH  024%=      5-min Rain = 0
KPD1 122035Z 22012KT 10/M10 A301 RMK A01 T00991095  RH  024%=      5-min Rain = 0
KPD1 122036Z 22010KT 10/M10 A301 RMK A01 T01001095  RH  024%=      5-min Rain = 0
KPD1 122037Z 19009KT 10/M09 A301 RMK A01 T01011094  RH  024%=      5-min Rain = 0
KPD1 122038Z 20009KT 10/M09 A301 RMK A01 T01031093  RH  024%=      5-min Rain = 0
KPD1 122039Z 21012KT 10/M09 A301 RMK A01 T01041093  RH  024%=      5-min Rain = 0
KPD1 122040Z 20011G16KT 10/M09 A301 RMK A01 T01041094  RH  024%=      5-min Rain = 0
KPD1 122041Z 20012KT 10/M10 A301 RMK A01 T01041095  RH  024%=      5-min Rain = 0
KPD1 122042Z 19010KT 10/M09 A301 RMK A01 T01041094  RH  024%=      5-min Rain = 0
KPD1 122043Z 20012KT 11/M09 A301 RMK A01 T01061094  RH  024%=      5-min Rain = 0
KPD1 122044Z 18010KT 11/M10 A301 RMK A01 T01051096  RH  023%=      5-min Rain = 0
KPD1 122045Z 19012KT 10/M10 A301 RMK A01 T01031097  RH  024%=      5-min Rain = 0
KPD1 122046Z 18011KT 10/M09 A301 RMK A01 T01041094  RH  024%=      5-min Rain = 0
KPD1 122047Z 19009KT 11/M09 A301 RMK A01 T01051094  RH  024%=      5-min Rain = 0
KPD1 122048Z 18008KT 11/M09 A301 RMK A01 T01061094  RH  024%=      5-min Rain = 0
KPD1 122049Z 18009KT 11/M09 A301 RMK A01 T01061094  RH  024%=      5-min Rain = 0
KPD1 122050Z 18007KT 11/M09 A301 RMK A01 T01061094  RH  024%=      5-min Rain = 0
KPD1 122051Z 17010KT 11/M10 A301 RMK A01 T01061095  RH  023%=      5-min Rain = 0
KPD1 122052Z 18010G15KT 11/M10 A301 RMK A01 T01061095  RH  024%=      5-min Rain = 0
KPD1 122053Z 18013G18KT 11/M10 A301 RMK A01 T01051095  RH  023%=      5-min Rain = 0
KPD1 122054Z 20010KT 10/M10 A301 RMK A01 T01041095  RH  024%=      5-min Rain = 0
KPD1 122055Z 20011KT 11/M10 A301 RMK A01 T01051095  RH  023%=      5-min Rain = 0
KPD1 122056Z 21011KT 11/M10 A301 RMK A01 T01061095  RH  023%=      5-min Rain = 0
KPD1 122057Z 22011KT 10/M10 A301 RMK A01 T01041098  RH  023%=      5-min Rain = 0
KPD1 122058Z 20010KT 10/M10 A301 RMK A01 T01021098  RH  023%=      5-min Rain = 0
KPD1 122059Z 19008KT 10/M10 A301 RMK A01 T01031096  RH  024%=      5-min Rain = 0
KPD1 122100Z 19008KT 11/M10 A301 RMK A01 T01051095  RH  024%=      5-min Rain = 0
KPD1 122101Z 18008KT 11/M10 A301 RMK A01 T01061095  RH  023%=      5-min Rain = 0
KPD1 122102Z 19007KT 11/M10 A301 RMK A01 T01061095  RH  023%=      5-min Rain = 0
KPD1 122103Z 18007KT 11/M10 A301 RMK A01 T01061096  RH  023%=      5-min Rain = 0
KPD1 122104Z 18011KT 11/M10 A3009 RMK A01 T01051096  RH  023%=      5-min Rain = 0
KPD1 122105Z 17013KT 10/M10 A3009 RMK A01 T01031098  RH  023%=      5-min Rain = 0
KPD1 122106Z 18012KT 10/M10 A3009 RMK A01 T01021097  RH  024%=      5-min Rain = 0
KPD1 122107Z 18008KT 10/M10 A3009 RMK A01 T01031096  RH  024%=      5-min Rain = 0
KPD1 122108Z 19008KT 10/M10 A3009 RMK A01 T01041095  RH  024%=      5-min Rain = 0
KPD1 122109Z 18007KT 11/M09 A3009 RMK A01 T01071093  RH  024%=      5-min Rain = 0
KPD1 122110Z 20008G14KT 11/M09 A301 RMK A01 T01091093  RH  023%=      5-min Rain = 0
KPD1 122111Z 19010KT 11/M09 A301 RMK A01 T01111092  RH  023%=      5-min Rain = 0
KPD1 122112Z 19011KT 11/M09 A301 RMK A01 T01111092  RH  023%=      5-min Rain = 0
KPD1 122113Z 18011KT 11/M09 A301 RMK A01 T01081094  RH  023%=      5-min Rain = 0
KPD1 122114Z 19011KT 11/M09 A301 RMK A01 T01071093  RH  023%=      5-min Rain = 0
KPD1 122115Z 19011KT 11/M09 A301 RMK A01 T01071093  RH  024%=      5-min Rain = 0
KPD1 122116Z 19010KT 11/M09 A301 RMK A01 T01061094  RH  023%=      5-min Rain = 0
KPD1 122117Z 20013KT 11/M09 A301 RMK A01 T01061093  RH  024%=      5-min Rain = 0
KPD1 122118Z 20013G18KT 11/M09 A301 RMK A01 T01071092  RH  024%=      5-min Rain = 0
KPD1 122119Z 20012KT 11/M09 A301 RMK A01 T01071092  RH  024%=      5-min Rain = 0
KPD1 122120Z 19011KT 11/M09 A301 RMK A01 T01071093  RH  024%=      5-min Rain = 0
KPD1 122121Z 18008KT 11/M09 A301 RMK A01 T01071092  RH  024%=      5-min Rain = 0
KPD1 122122Z 20010KT 11/M09 A301 RMK A01 T01061092  RH  024%=      5-min Rain = 0
KPD1 122123Z 20009KT 11/M09 A3009 RMK A01 T01081092  RH  024%=      5-min Rain = 0
KPD1 122124Z 20010KT 11/M09 A3009 RMK A01 T01091091  RH  024%=      5-min Rain = 0
KPD1 122125Z 20006KT 11/M09 A3009 RMK A01 T01091092  RH  023%=      5-min Rain = 0
KPD1 122126Z 18009KT 11/M09 A3009 RMK A01 T01111090  RH  024%=      5-min Rain = 0
KPD1 122127Z 17009KT 11/M09 A3009 RMK A01 T01121090  RH  023%=      5-min Rain = 0
KPD1 122128Z 15010KT 11/M09 A3009 RMK A01 T01121091  RH  023%=      5-min Rain = 0
KPD1 122129Z 17013KT 11/M09 A301 RMK A01 T01121092  RH  023%=      5-min Rain = 0
KPD1 122130Z 16009KT 11/M09 A301 RMK A01 T01101093  RH  023%=      5-min Rain = 0
KPD1 122131Z 17010KT 11/M09 A301 RMK A01 T01091092  RH  023%=      5-min Rain = 0
KPD1 122132Z 17011KT 11/M09 A301 RMK A01 T01091092  RH  024%=      5-min Rain = 0
KPD1 122133Z 17012KT 11/M09 A301 RMK A01 T01091091  RH  024%=      5-min Rain = 0
KPD1 122134Z 18010KT 11/M09 A301 RMK A01 T01081092  RH  024%=      5-min Rain = 0
KPD1 122135Z 19007G12KT 11/M09 A301 RMK A01 T01081091  RH  024%=      5-min Rain = 0
KPD1 122136Z 18006KT 11/M09 A301 RMK A01 T01101089  RH  024%=      5-min Rain = 0
KPD1 122137Z 18010KT 11/M09 A301 RMK A01 T01121089  RH  024%=      5-min Rain = 0
KPD1 122138Z 19007KT 11/M09 A301 RMK A01 T01121090  RH  023%=      5-min Rain = 0
KPD1 122139Z 18008KT 11/M09 A301 RMK A01 T01121090  RH  023%=      5-min Rain = 0
KPD1 122140Z 18008KT 11/M09 A301 RMK A01 T01121090  RH  023%=      5-min Rain = 0
KPD1 122141Z 18007KT 11/M09 A301 RMK A01 T01121090  RH  023%=      5-min Rain = 0
KPD1 122142Z 17008G13KT 11/M09 A301 RMK A01 T01121090  RH  023%=      5-min Rain = 0
KPD1 122143Z 18012KT 11/M09 A301 RMK A01 T01121091  RH  023%=      5-min Rain = 0
KPD1 122144Z 18012KT 11/M09 A301 RMK A01 T01091093  RH  023%=      5-min Rain = 0
KPD1 122145Z 19010KT 11/M09 A301 RMK A01 T01081094  RH  023%=      5-min Rain = 0
KPD1 122146Z 16009KT 11/M09 A301 RMK A01 T01071093  RH  024%=      5-min Rain = 0
KPD1 122147Z 17008KT 11/M09 A301 RMK A01 T01071092  RH  024%=      5-min Rain = 0
KPD1 122148Z 18011G17KT 11/M09 A301 RMK A01 T01081091  RH  024%=      5-min Rain = 0
KPD1 122149Z 18011G17KT 11/M09 A301 RMK A01 T01101091  RH  023%=      5-min Rain = 0
KPD1 122150Z 17009KT 11/M09 A301 RMK A01 T01091093  RH  023%=      5-min Rain = 0
KPD1 122151Z 18010KT 11/M09 A301 RMK A01 T01091091  RH  024%=      5-min Rain = 0
KPD1 122152Z 17010KT 11/M09 A301 RMK A01 T01091092  RH  023%=      5-min Rain = 0
KPD1 122153Z 17009KT 11/M09 A301 RMK A01 T01081092  RH  024%=      5-min Rain = 0
KPD1 122154Z 17008KT 11/M09 A301 RMK A01 T01091091  RH  024%=      5-min Rain = 0
KPD1 122155Z 17006KT 11/M09 A301 RMK A01 T01091090  RH  024%=      5-min Rain = 0
KPD1 122156Z 17009G14KT 11/M09 A301 RMK A01 T01101089  RH  024%=      5-min Rain = 0
KPD1 122157Z 16012KT 11/M09 A301 RMK A01 T01111090  RH  023%=      5-min Rain = 0
KPD1 122158Z 17008G13KT 11/M09 A301 RMK A01 T01111091  RH  023%=      5-min Rain = 0
KPD1 122159Z 18010KT 11/M09 A301 RMK A01 T01111090  RH  024%=      5-min Rain = 0
KPD1 122200Z 18010KT 11/M09 A301 RMK A01 T01091092  RH  023%=      5-min Rain = 0
KPD1 122201Z 18006KT 11/M09 A301 RMK A01 T01081092  RH  024%=      5-min Rain = 0
KPD1 122202Z 17007KT 11/M09 A301 RMK A01 T01081091  RH  024%=      5-min Rain = 0
KPD1 122203Z 16011G16KT 11/M09 A301 RMK A01 T01101090  RH  024%=      5-min Rain = 0
KPD1 122204Z 17010KT 11/M09 A3011 RMK A01 T01101090  RH  024%=      5-min Rain = 0
KPD1 122205Z 17008KT 11/M09 A3011 RMK A01 T01101090  RH  024%=      5-min Rain = 0
KPD1 122206Z 17007G12KT 11/M09 A3011 RMK A01 T01091090  RH  024%=      5-min Rain = 0
KPD1 122207Z 18007KT 11/M09 A3011 RMK A01 T01101090  RH  024%=      5-min Rain = 0
KPD1 122208Z 19008KT 11/M09 A3011 RMK A01 T01111089  RH  024%=      5-min Rain = 0
KPD1 122209Z 17009KT 11/M09 A3011 RMK A01 T01121089  RH  024%=      5-min Rain = 0
KPD1 122210Z 17009KT 11/M09 A3011 RMK A01 T01121090  RH  023%=      5-min Rain = 0
KPD1 122211Z 18008KT 11/M09 A3011 RMK A01 T01101092  RH  023%=      5-min Rain = 0
KPD1 122212Z 19009KT 11/M09 A3011 RMK A01 T01091091  RH  023%=      5-min Rain = 0
KPD1 122213Z 20009KT 11/M09 A3011 RMK A01 T01091091  RH  024%=      5-min Rain = 0
KPD1 122214Z 18009KT 11/M09 A3011 RMK A01 T01091091  RH  024%=      5-min Rain = 0
KPD1 122215Z 18010KT 11/M09 A3011 RMK A01 T01081091  RH  024%=      5-min Rain = 0
KPD1 122216Z 19009KT 11/M09 A3011 RMK A01 T01081092  RH  024%=      5-min Rain = 0
KPD1 122217Z 19007KT 11/M09 A3011 RMK A01 T01071092  RH  024%=      5-min Rain = 0
KPD1 122218Z 18006KT 11/M09 A3011 RMK A01 T01071092  RH  024%=      5-min Rain = 0
KPD1 122219Z 17006KT 11/M09 A3011 RMK A01 T01081091  RH  024%=      5-min Rain = 0
KPD1 122220Z 15008KT 11/M09 A3011 RMK A01 T01101091  RH  024%=      5-min Rain = 0
KPD1 122221Z 17007KT 11/M09 A3011 RMK A01 T01101091  RH  023%=      5-min Rain = 0
KPD1 122222Z 17010KT 11/M09 A3011 RMK A01 T01101091  RH  023%=      5-min Rain = 0
KPD1 122223Z 15011KT 11/M09 A3011 RMK A01 T01091092  RH  023%=      5-min Rain = 0
KPD1 122224Z 15011KT 11/M09 A3012 RMK A01 T01081094  RH  023%=      5-min Rain = 0
KPD1 122225Z 16011KT 11/M10 A3012 RMK A01 T01061095  RH  023%=      5-min Rain = 0
KPD1 122226Z 15011KT 11/M10 A3012 RMK A01 T01051095  RH  024%=      5-min Rain = 0
KPD1 122227Z 15010KT 10/M10 A3012 RMK A01 T01041095  RH  024%=      5-min Rain = 0
KPD1 122228Z 16009KT 10/M10 A3012 RMK A01 T01041095  RH  024%=      5-min Rain = 0
KPD1 122229Z 16009KT 10/M10 A3012 RMK A01 T01031095  RH  024%=      5-min Rain = 0
KPD1 122230Z 18010KT 10/M09 A3012 RMK A01 T01041094  RH  024%=      5-min Rain = 0
KPD1 122231Z 17008KT 11/M09 A3012 RMK A01 T01051093  RH  024%=      5-min Rain = 0
KPD1 122232Z 15009KT 11/M09 A3012 RMK A01 T01051093  RH  024%=      5-min Rain = 0
KPD1 122233Z 17010KT 11/M09 A3012 RMK A01 T01051094  RH  024%=      5-min Rain = 0
KPD1 122234Z 17009KT 11/M09 A3012 RMK A01 T01051094  RH  024%=      5-min Rain = 0
KPD1 122235Z 16008KT 11/M09 A3012 RMK A01 T01051094  RH  024%=      5-min Rain = 0
KPD1 122236Z 15010KT 11/M09 A3012 RMK A01 T01051093  RH  024%=      5-min Rain = 0
KPD1 122237Z 16010KT 11/M09 A3012 RMK A01 T01051094  RH  024%=      5-min Rain = 0
KPD1 122238Z 15010KT 10/M09 A3012 RMK A01 T01041094  RH  024%=      5-min Rain = 0
KPD1 122239Z 17011KT 10/M09 A3012 RMK A01 T01041094  RH  024%=      5-min Rain = 0
KPD1 122240Z 17009KT 10/M09 A3012 RMK A01 T01041094  RH  024%=      5-min Rain = 0
KPD1 122241Z 16008KT 10/M09 A3012 RMK A01 T01031094  RH  024%=      5-min Rain = 0
KPD1 122242Z 16008KT 10/M09 A3012 RMK A01 T01031094  RH  024%=      5-min Rain = 0
KPD1 122243Z 16009KT 10/M09 A3012 RMK A01 T01041094  RH  024%=      5-min Rain = 0
KPD1 122244Z 15011KT 10/M10 A3012 RMK A01 T01031095  RH  024%=      5-min Rain = 0
KPD1 122245Z 15009KT 10/M10 A3012 RMK A01 T01021095  RH  024%=      5-min Rain = 0
KPD1 122246Z 16009KT 10/M10 A3012 RMK A01 T01021095  RH  024%=      5-min Rain = 0
KPD1 122247Z 15009KT 10/M10 A3012 RMK A01 T01021095  RH  024%=      5-min Rain = 0
KPD1 122248Z 15008KT 10/M10 A3012 RMK A01 T01021095  RH  024%=      5-min Rain = 0
KPD1 122249Z 16009KT 10/M10 A3012 RMK A01 T01021095  RH  024%=      5-min Rain = 0
KPD1 122250Z 16011KT 10/M10 A3012 RMK A01 T01011095  RH  024%=      5-min Rain = 0
KPD1 122251Z 16008KT 10/M10 A3012 RMK A01 T01011095  RH  024%=      5-min Rain = 0
KPD1 122252Z 16011G16KT 10/M10 A3012 RMK A01 T01011095  RH  024%=      5-min Rain = 0
KPD1 122253Z 16011KT 10/M10 A3012 RMK A01 T01001095  RH  024%=      5-min Rain = 0
KPD1 122254Z 16010KT 10/M10 A3012 RMK A01 T00991096  RH  024%=      5-min Rain = 0
KPD1 122255Z 15011KT 10/M10 A3012 RMK A01 T00991096  RH  024%=      5-min Rain = 0
KPD1 122256Z 16010KT 10/M10 A3012 RMK A01 T00991096  RH  024%=      5-min Rain = 0
KPD1 122257Z 16011KT 10/M10 A3013 RMK A01 T00981096  RH  024%=      5-min Rain = 0
KPD1 122258Z 16006KT 10/M10 A3013 RMK A01 T00981096  RH  024%=      5-min Rain = 0
KPD1 122259Z 15006G12KT 10/M10 A3013 RMK A01 T00981096  RH  025%=      5-min Rain = 0
KPD1 122300Z 14007KT 10/M10 A3013 RMK A01 T00981095  RH  025%=      5-min Rain = 0
KPD1 122301Z 15008KT 10/M10 A3013 RMK A01 T00981095  RH  025%=      5-min Rain = 0
KPD1 122302Z 15008KT 10/M10 A3013 RMK A01 T00991095  RH  025%=      5-min Rain = 0
KPD1 122303Z 15009KT 10/M10 A3013 RMK A01 T00991095  RH  025%=      5-min Rain = 0
KPD1 122304Z 15009KT 10/M09 A3013 RMK A01 T00991094  RH  025%=      5-min Rain = 0
KPD1 122305Z 15010KT 10/M09 A3013 RMK A01 T00991094  RH  025%=      5-min Rain = 0
KPD1 122306Z 16010KT 10/M09 A3013 RMK A01 T00981094  RH  025%=      5-min Rain = 0
KPD1 122307Z 16010KT 10/M10 A3013 RMK A01 T00971095  RH  025%=      5-min Rain = 0
KPD1 122308Z 16009KT 10/M10 A3013 RMK A01 T00971095  RH  025%=      5-min Rain = 0
KPD1 122309Z 16009KT 10/M10 A3014 RMK A01 T00971095  RH  025%=      5-min Rain = 0
KPD1 122310Z 15008KT 10/M10 A3014 RMK A01 T00961096  RH  025%=      5-min Rain = 0
KPD1 122311Z 15009KT 10/M10 A3014 RMK A01 T00961096  RH  025%=      5-min Rain = 0
KPD1 122312Z 16010KT 10/M10 A3014 RMK A01 T00961096  RH  025%=      5-min Rain = 0
KPD1 122313Z 15008KT 10/M10 A3014 RMK A01 T00961096  RH  025%=      5-min Rain = 0
KPD1 122314Z 15009KT 10/M10 A3014 RMK A01 T00961095  RH  025%=      5-min Rain = 0
KPD1 122315Z 15008KT 10/M10 A3014 RMK A01 T00951096  RH  025%=      5-min Rain = 0
KPD1 122316Z 15011KT 09/M10 A3014 RMK A01 T00941097  RH  025%=      5-min Rain = 0
KPD1 122317Z 14011KT 09/M10 A3014 RMK A01 T00931098  RH  025%=      5-min Rain = 0
KPD1 122318Z 15010KT 09/M10 A3014 RMK A01 T00921098  RH  025%=      5-min Rain = 0
KPD1 122319Z 15011KT 09/M10 A3014 RMK A01 T00921099  RH  025%=      5-min Rain = 0
KPD1 122320Z 15011KT 09/M10 A3014 RMK A01 T00911099  RH  025%=      5-min Rain = 0
KPD1 122321Z 15012G17KT 09/M10 A3014 RMK A01 T00911099  RH  025%=      5-min Rain = 0
KPD1 122322Z 16011KT 09/M10 A3014 RMK A01 T00901099  RH  025%=      5-min Rain = 0
KPD1 122323Z 15010KT 09/M10 A3014 RMK A01 T00891099  RH  025%=      5-min Rain = 0
KPD1 122324Z 15010KT 09/M10 A3014 RMK A01 T00881099  RH  025%=      5-min Rain = 0
KPD1 122325Z 15011KT 09/M10 A3014 RMK A01 T00871100  RH  025%=      5-min Rain = 0
KPD1 122326Z 15009KT 09/M10 A3014 RMK A01 T00861100  RH  026%=      5-min Rain = 0
KPD1 122327Z 15011G16KT 09/M10 A3014 RMK A01 T00851101  RH  026%=      5-min Rain = 0
KPD1 122328Z 15011KT 08/M10 A3014 RMK A01 T00841101  RH  026%=      5-min Rain = 0
KPD1 122329Z 14009G15KT 08/M10 A3014 RMK A01 T00831102  RH  026%=      5-min Rain = 0
KPD1 122330Z 14010KT 08/M10 A3014 RMK A01 T00821102  RH  026%=      5-min Rain = 0
KPD1 122331Z 15011KT 08/M10 A3015 RMK A01 T00811102  RH  026%=      5-min Rain = 0
KPD1 122332Z 14011KT 08/M10 A3015 RMK A01 T00801102  RH  026%=      5-min Rain = 0
KPD1 122333Z 15010G16KT 08/M10 A3015 RMK A01 T00801102  RH  026%=      5-min Rain = 0
KPD1 122334Z 15012KT 08/M10 A3015 RMK A01 T00801102  RH  026%=      5-min Rain = 0
KPD1 122335Z 14012KT 08/M10 A3015 RMK A01 T00801102  RH  026%=      5-min Rain = 0
KPD1 122336Z 15010KT 08/M10 A3015 RMK A01 T00791103  RH  026%=      5-min Rain = 0
KPD1 122337Z 15009KT 08/M10 A3015 RMK A01 T00781103  RH  026%=      5-min Rain = 0
KPD1 122338Z 15010KT 08/M10 A3015 RMK A01 T00781103  RH  026%=      5-min Rain = 0
KPD1 122339Z 15009KT 08/M10 A3015 RMK A01 T00771103  RH  027%=      5-min Rain = 0
KPD1 122340Z 15008KT 08/M10 A3015 RMK A01 T00771103  RH  027%=      5-min Rain = 0
KPD1 122341Z 15010KT 08/M10 A3015 RMK A01 T00771103  RH  027%=      5-min Rain = 0
KPD1 122342Z 16010KT 08/M10 A3016 RMK A01 T00761103  RH  027%=      5-min Rain = 0
KPD1 122343Z 14009KT 08/M10 A3016 RMK A01 T00761103  RH  027%=      5-min Rain = 0
KPD1 122344Z 13010KT 08/M10 A3016 RMK A01 T00761103  RH  027%=      5-min Rain = 0
KPD1 122345Z 13008KT 07/M11 A3016 RMK A01 T00741105  RH  027%=      5-min Rain = 0
KPD1 122346Z 12006KT 07/M11 A3016 RMK A01 T00731105  RH  027%=      5-min Rain = 0
KPD1 122347Z 11006KT 07/M11 A3017 RMK A01 T00711106  RH  027%=      5-min Rain = 0
KPD1 122348Z 12006KT 07/M11 A3017 RMK A01 T00681107  RH  027%=      5-min Rain = 0
KPD1 122349Z 14005KT 07/M11 A3017 RMK A01 T00651110  RH  027%=      5-min Rain = 0
KPD1 122350Z 12006KT 06/M11 A3017 RMK A01 T00631111  RH  028%=      5-min Rain = 0
KPD1 122351Z 13006KT 06/M11 A3017 RMK A01 T00621109  RH  028%=      5-min Rain = 0
KPD1 122352Z 13004KT 06/M11 A3017 RMK A01 T00601110  RH  028%=      5-min Rain = 0
KPD1 122353Z 14004KT 06/M11 A3018 RMK A01 T00591110  RH  029%=      5-min Rain = 0
KPD1 122354Z 13004KT 06/M11 A3018 RMK A01 T00571111  RH  029%=      5-min Rain = 0
KPD1 122355Z 15005KT 06/M11 A3018 RMK A01 T00561111  RH  029%=      5-min Rain = 0
KPD1 122356Z 14005KT 06/M11 A3018 RMK A01 T00551111  RH  029%=      5-min Rain = 0
KPD1 122357Z 14006KT 05/M11 A3018 RMK A01 T00531112  RH  029%=      5-min Rain = 0
KPD1 122358Z 12005KT 05/M11 A3018 RMK A01 T00511113  RH  029%=      5-min Rain = 0
KPD1 122359Z 14004KT 05/M11 A3018 RMK A01 T00501114  RH  029%=      5-min Rain = 0
KPD1 130000Z 14009KT 05/M12 A3018 RMK A01 T00491115  RH  029%=      5-min Rain = 0
KPD1 130001Z 13006KT 05/M12 A3018 RMK A01 T00481115  RH  030%=      5-min Rain = 0
KPD1 130002Z 12006KT 05/M12 A3019 RMK A01 T00471115  RH  030%=      5-min Rain = 0
KPD1 130003Z 15006KT 05/M12 A3019 RMK A01 T00461115  RH  030%=      5-min Rain = 0
KPD1 130004Z 14006KT 05/M12 A3019 RMK A01 T00461116  RH  030%=      5-min Rain = 0
KPD1 130005Z 13004KT 05/M12 A3019 RMK A01 T00451116  RH  030%=      5-min Rain = 0
KPD1 130006Z 15007KT 04/M12 A3019 RMK A01 T00441116  RH  030%=      5-min Rain = 0
KPD1 130007Z 15008KT 04/M12 A3019 RMK A01 T00431116  RH  030%=      5-min Rain = 0
KPD1 130008Z 15008KT 04/M12 A3019 RMK A01 T00431115  RH  031%=      5-min Rain = 0
KPD1 130009Z 13007KT 04/M12 A3019 RMK A01 T00421115  RH  031%=      5-min Rain = 0
KPD1 130010Z 15010KT 04/M12 A3019 RMK A01 T00421115  RH  031%=      5-min Rain = 0
KPD1 130011Z 14007KT 04/M12 A3019 RMK A01 T00411115  RH  031%=      5-min Rain = 0
KPD1 130012Z 13008KT 04/M12 A3019 RMK A01 T00411116  RH  031%=      5-min Rain = 0
KPD1 130013Z 13005KT 04/M12 A302 RMK A01 T00411116  RH  031%=      5-min Rain = 0
KPD1 130014Z 13006KT 04/M12 A302 RMK A01 T00401115  RH  031%=      5-min Rain = 0
KPD1 130015Z 12006KT 04/M12 A302 RMK A01 T00391116  RH  031%=      5-min Rain = 0
KPD1 130016Z 12006KT 04/M12 A302 RMK A01 T00391116  RH  031%=      5-min Rain = 0
KPD1 130017Z 13007KT 04/M12 A302 RMK A01 T00381116  RH  031%=      5-min Rain = 0
KPD1 130018Z 13006KT 04/M12 A302 RMK A01 T00381116  RH  031%=      5-min Rain = 0
KPD1 130019Z 13008KT 04/M12 A302 RMK A01 T00381116  RH  031%=      5-min Rain = 0
KPD1 130020Z 14005KT 04/M12 A302 RMK A01 T00381116  RH  031%=      5-min Rain = 0
KPD1 130021Z 15007KT 04/M12 A302 RMK A01 T00371117  RH  031%=      5-min Rain = 0
KPD1 130022Z 13006KT 04/M12 A302 RMK A01 T00371116  RH  032%=      5-min Rain = 0
KPD1 130023Z 15007KT 04/M12 A302 RMK A01 T00371117  RH  032%=      5-min Rain = 0
KPD1 130024Z 16010KT 04/M12 A302 RMK A01 T00371117  RH  032%=      5-min Rain = 0
KPD1 130025Z 15011KT 04/M12 A302 RMK A01 T00361117  RH  032%=      5-min Rain = 0
KPD1 130026Z 15008KT 04/M12 A3021 RMK A01 T00361117  RH  031%=      5-min Rain = 0
KPD1 130027Z 14008KT 04/M12 A3021 RMK A01 T00361118  RH  031%=      5-min Rain = 0
KPD1 130028Z 14009KT 04/M12 A3021 RMK A01 T00361118  RH  032%=      5-min Rain = 0
KPD1 130029Z 15009KT 04/M12 A3021 RMK A01 T00351118  RH  032%=      5-min Rain = 0
KPD1 130030Z 14006KT 04/M12 A3021 RMK A01 T00351119  RH  032%=      5-min Rain = 0
KPD1 130031Z 13008KT 03/M12 A3021 RMK A01 T00341119  RH  032%=      5-min Rain = 0
KPD1 130032Z 13008KT 03/M12 A3021 RMK A01 T00341120  RH  032%=      5-min Rain = 0
KPD1 130033Z 13009KT 03/M12 A3021 RMK A01 T00341119  RH  032%=      5-min Rain = 0
KPD1 130034Z 15009KT 03/M12 A3021 RMK A01 T00331120  RH  032%=      5-min Rain = 0
KPD1 130035Z 15008KT 03/M12 A3021 RMK A01 T00331120  RH  032%=      5-min Rain = 0
KPD1 130036Z 15008KT 03/M12 A3021 RMK A01 T00331121  RH  032%=      5-min Rain = 0
KPD1 130037Z 13008KT 03/M12 A3022 RMK A01 T00331121  RH  031%=      5-min Rain = 0
KPD1 130038Z 16008KT 03/M12 A3022 RMK A01 T00321122  RH  031%=      5-min Rain = 0
KPD1 130039Z 13008KT 03/M12 A3022 RMK A01 T00311123  RH  031%=      5-min Rain = 0
KPD1 130040Z 14006KT 03/M12 A3022 RMK A01 T00311123  RH  031%=      5-min Rain = 0
KPD1 130041Z 15008KT 03/M12 A3022 RMK A01 T00311123  RH  031%=      5-min Rain = 0
KPD1 130042Z 15007KT 03/M12 A3022 RMK A01 T00311123  RH  031%=      5-min Rain = 0
KPD1 130043Z 15008KT 03/M12 A3022 RMK A01 T00301124  RH  031%=      5-min Rain = 0
KPD1 130044Z 14007KT 03/M12 A3022 RMK A01 T00291124  RH  031%=      5-min Rain = 0
KPD1 130045Z 12009G15KT 03/M12 A3023 RMK A01 T00301123  RH  031%=      5-min Rain = 0
KPD1 130046Z 13012G18KT 03/M12 A3023 RMK A01 T00291124  RH  031%=      5-min Rain = 0
KPD1 130047Z 12010KT 03/M13 A3023 RMK A01 T00291125  RH  031%=      5-min Rain = 0
KPD1 130048Z 12008KT 03/M12 A3023 RMK A01 T00301124  RH  031%=      5-min Rain = 0
KPD1 130049Z 13007KT 03/M13 A3023 RMK A01 T00301125  RH  031%=      5-min Rain = 0
KPD1 130050Z 11008KT 03/M13 A3023 RMK A01 T00291125  RH  031%=      5-min Rain = 0
KPD1 130051Z 13009KT 03/M12 A3024 RMK A01 T00291124  RH  031%=      5-min Rain = 0
KPD1 130052Z 13009KT 03/M13 A3024 RMK A01 T00291125  RH  031%=      5-min Rain = 0
KPD1 130053Z 14009KT 03/M13 A3024 RMK A01 T00291125  RH  031%=      5-min Rain = 0
KPD1 130054Z 13009KT 03/M12 A3024 RMK A01 T00291124  RH  031%=      5-min Rain = 0
KPD1 130055Z 13007KT 03/M12 A3024 RMK A01 T00291124  RH  031%=      5-min Rain = 0
KPD1 130056Z 12006KT 03/M13 A3024 RMK A01 T00291125  RH  031%=      5-min Rain = 0
KPD1 130057Z 11008KT 03/M13 A3024 RMK A01 T00281125  RH  031%=      5-min Rain = 0
KPD1 130058Z 11008KT 03/M13 A3025 RMK A01 T00281126  RH  031%=      5-min Rain = 0
KPD1 130059Z 13009KT 03/M13 A3025 RMK A01 T00281126  RH  031%=      5-min Rain = 0
KPD1 130100Z 12007KT 03/M13 A3025 RMK A01 T00281126  RH  031%=      5-min Rain = 0
KPD1 130101Z 11007KT 03/M13 A3025 RMK A01 T00281125  RH  031%=      5-min Rain = 0
KPD1 130102Z 11005KT 03/M13 A3025 RMK A01 T00281126  RH  031%=      5-min Rain = 0
KPD1 130103Z 10006KT 03/M13 A3025 RMK A01 T00281125  RH  031%=      5-min Rain = 0
KPD1 130104Z 11007KT 03/M13 A3025 RMK A01 T00271126  RH  031%=      5-min Rain = 0
KPD1 130105Z 11007KT 03/M13 A3025 RMK A01 T00261126  RH  031%=      5-min Rain = 0
KPD1 130106Z 13007KT 03/M13 A3025 RMK A01 T00261126  RH  032%=      5-min Rain = 0
KPD1 130107Z 12007KT 03/M13 A3025 RMK A01 T00251127  RH  032%=      5-min Rain = 0
KPD1 130108Z 12007KT 03/M13 A3026 RMK A01 T00251126  RH  032%=      5-min Rain = 0
KPD1 130109Z 13007KT 03/M13 A3026 RMK A01 T00261126  RH  032%=      5-min Rain = 0
KPD1 130110Z 13006KT 03/M13 A3026 RMK A01 T00251127  RH  032%=      5-min Rain = 0
KPD1 130111Z 11008KT 03/M13 A3026 RMK A01 T00251127  RH  032%=      5-min Rain = 0
KPD1 130112Z 12007KT 03/M13 A3026 RMK A01 T00251127  RH  032%=      5-min Rain = 0
KPD1 130113Z 11008KT 03/M13 A3026 RMK A01 T00251127  RH  032%=      5-min Rain = 0
KPD1 130114Z 13007KT 02/M13 A3026 RMK A01 T00241127  RH  032%=      5-min Rain = 0
KPD1 130115Z 15006KT 02/M13 A3026 RMK A01 T00241126  RH  032%=      5-min Rain = 0
KPD1 130116Z 14004KT 02/M13 A3026 RMK A01 T00241126  RH  032%=      5-min Rain = 0
KPD1 130117Z 12004KT 02/M13 A3026 RMK A01 T00231126  RH  032%=      5-min Rain = 0
KPD1 130118Z 14003KT 02/M13 A3026 RMK A01 T00231126  RH  032%=      5-min Rain = 0
KPD1 130119Z 13006KT 02/M13 A3027 RMK A01 T00231126  RH  032%=      5-min Rain = 0
KPD1 130120Z 13007KT 02/M13 A3027 RMK A01 T00221126  RH  032%=      5-min Rain = 0
KPD1 130121Z 12009KT 02/M13 A3027 RMK A01 T00221127  RH  032%=      5-min Rain = 0
KPD1 130122Z 14007KT 02/M13 A3027 RMK A01 T00221126  RH  032%=      5-min Rain = 0
KPD1 130123Z 14008KT 02/M13 A3027 RMK A01 T00221127  RH  032%=      5-min Rain = 0
KPD1 130124Z 14007KT 02/M13 A3027 RMK A01 T00221127  RH  032%=      5-min Rain = 0
KPD1 130125Z 15008G13KT 02/M13 A3026 RMK A01 T00221127  RH  032%=      5-min Rain = 0
KPD1 130126Z 14011KT 02/M13 A3026 RMK A01 T00221128  RH  032%=      5-min Rain = 0
KPD1 130127Z 14009KT 02/M13 A3026 RMK A01 T00211128  RH  032%=      5-min Rain = 0
KPD1 130128Z 15010KT 02/M13 A3026 RMK A01 T00221128  RH  032%=      5-min Rain = 0
KPD1 130129Z 15009KT 02/M13 A3026 RMK A01 T00211128  RH  032%=      5-min Rain = 0
KPD1 130130Z 15008KT 02/M13 A3026 RMK A01 T00211129  RH  032%=      5-min Rain = 0
KPD1 130131Z 15009KT 02/M13 A3026 RMK A01 T00211129  RH  032%=      5-min Rain = 0
KPD1 130132Z 15010KT 02/M13 A3026 RMK A01 T00201129  RH  032%=      5-min Rain = 0
KPD1 130133Z 15013KT 02/M13 A3026 RMK A01 T00211129  RH  032%=      5-min Rain = 0
KPD1 130134Z 13011KT 02/M13 A3026 RMK A01 T00211129  RH  032%=      5-min Rain = 0
KPD1 130135Z 14010KT 02/M13 A3026 RMK A01 T00201129  RH  032%=      5-min Rain = 0
KPD1 130136Z 14009KT 02/M13 A3026 RMK A01 T00201130  RH  032%=      5-min Rain = 0
KPD1 130137Z 14010KT 02/M13 A3026 RMK A01 T00201130  RH  032%=      5-min Rain = 0
KPD1 130138Z 14011KT 02/M13 A3027 RMK A01 T00201130  RH  032%=      5-min Rain = 0
KPD1 130139Z 14009KT 02/M13 A3027 RMK A01 T00191130  RH  032%=      5-min Rain = 0
KPD1 130140Z 14008KT 02/M13 A3027 RMK A01 T00191130  RH  032%=      5-min Rain = 0
KPD1 130141Z 14005KT 02/M13 A3027 RMK A01 T00191130  RH  032%=      5-min Rain = 0
KPD1 130142Z 14005KT 02/M13 A3027 RMK A01 T00181131  RH  032%=      5-min Rain = 0
KPD1 130143Z 11005KT 02/M13 A3028 RMK A01 T00181131  RH  032%=      5-min Rain = 0
KPD1 130144Z 12006G11KT 02/M13 A3028 RMK A01 T00171131  RH  032%=      5-min Rain = 0
KPD1 130145Z 11009KT 02/M13 A3028 RMK A01 T00171131  RH  032%=      5-min Rain = 0
KPD1 130146Z 12009KT 02/M13 A3028 RMK A01 T00161132  RH  032%=      5-min Rain = 0
KPD1 130147Z 13009KT 02/M13 A3028 RMK A01 T00161132  RH  032%=      5-min Rain = 0
KPD1 130148Z 13011KT 02/M13 A3028 RMK A01 T00171131  RH  032%=      5-min Rain = 0
KPD1 130149Z 12011KT 02/M13 A3028 RMK A01 T00161132  RH  032%=      5-min Rain = 0
KPD1 130150Z 13010KT 02/M13 A3028 RMK A01 T00161133  RH  032%=      5-min Rain = 0
KPD1 130151Z 15010KT 02/M13 A3028 RMK A01 T00171133  RH  032%=      5-min Rain = 0
KPD1 130152Z 14010KT 02/M13 A3028 RMK A01 T00161134  RH  032%=      5-min Rain = 0
KPD1 130153Z 14008KT 02/M13 A3028 RMK A01 T00161134  RH  032%=      5-min Rain = 0
KPD1 130154Z 13008KT 02/M13 A3028 RMK A01 T00151134  RH  032%=      5-min Rain = 0
KPD1 130155Z 13007KT 02/M14 A3028 RMK A01 T00151135  RH  032%=      5-min Rain = 0
KPD1 130156Z 12007KT 02/M14 A3029 RMK A01 T00151135  RH  032%=      5-min Rain = 0
KPD1 130157Z 12006KT 01/M13 A3029 RMK A01 T00141134  RH  032%=      5-min Rain = 0
KPD1 130158Z 12007KT 01/M14 A3029 RMK A01 T00141135  RH  032%=      5-min Rain = 0
KPD1 130159Z 13007KT 01/M14 A3029 RMK A01 T00131135  RH  032%=      5-min Rain = 0
KPD1 130200Z 12006KT 01/M14 A3029 RMK A01 T00131135  RH  032%=      5-min Rain = 0
KPD1 130201Z 14007KT 01/M14 A3029 RMK A01 T00131135  RH  032%=      5-min Rain = 0
KPD1 130202Z 14007KT 01/M14 A3029 RMK A01 T00131135  RH  032%=      5-min Rain = 0
KPD1 130203Z 14008KT 01/M14 A3029 RMK A01 T00121135  RH  032%=      5-min Rain = 0
KPD1 130204Z 14007KT 01/M14 A3029 RMK A01 T00121135  RH  032%=      5-min Rain = 0
KPD1 130205Z 14009KT 01/M14 A3029 RMK A01 T00121135  RH  032%=      5-min Rain = 0
KPD1 130206Z 13008KT 01/M14 A3029 RMK A01 T00121135  RH  032%=      5-min Rain = 0
KPD1 130207Z 14006KT 01/M14 A3029 RMK A01 T00131135  RH  032%=      5-min Rain = 0
KPD1 130208Z 13007KT 01/M14 A303 RMK A01 T00121135  RH  032%=      5-min Rain = 0
KPD1 130209Z 13005KT 01/M14 A303 RMK A01 T00121135  RH  032%=      5-min Rain = 0
KPD1 130210Z 12007KT 01/M14 A303 RMK A01 T00121135  RH  032%=      5-min Rain = 0
KPD1 130211Z 12007KT 01/M14 A303 RMK A01 T00121136  RH  032%=      5-min Rain = 0
KPD1 130212Z 12007KT 01/M14 A303 RMK A01 T00111136  RH  032%=      5-min Rain = 0
KPD1 130213Z 13005KT 01/M14 A303 RMK A01 T00111136  RH  032%=      5-min Rain = 0
KPD1 130214Z 13005KT 01/M14 A303 RMK A01 T00111136  RH  032%=      5-min Rain = 0
KPD1 130215Z 13006KT 01/M14 A3031 RMK A01 T00101136  RH  033%=      5-min Rain = 0
KPD1 130216Z 12005KT 01/M14 A3031 RMK A01 T00111136  RH  033%=      5-min Rain = 0
KPD1 130217Z 11004KT 01/M14 A3031 RMK A01 T00101136  RH  033%=      5-min Rain = 0
KPD1 130218Z 11005KT 01/M14 A3031 RMK A01 T00101136  RH  033%=      5-min Rain = 0
KPD1 130219Z 11005KT 01/M14 A3031 RMK A01 T00091137  RH  033%=      5-min Rain = 0
KPD1 130220Z 10005KT 01/M14 A3032 RMK A01 T00081136  RH  033%=      5-min Rain = 0
KPD1 130221Z 10006KT 01/M14 A3032 RMK A01 T00071136  RH  033%=      5-min Rain = 0
KPD1 130222Z 11007KT 01/M14 A3032 RMK A01 T00071136  RH  034%=      5-min Rain = 0
KPD1 130223Z 11006KT 01/M14 A3032 RMK A01 T00071135  RH  034%=      5-min Rain = 0
KPD1 130224Z 11007KT 01/M14 A3032 RMK A01 T00071136  RH  034%=      5-min Rain = 0
KPD1 130225Z 11006KT 01/M14 A3032 RMK A01 T00071135  RH  034%=      5-min Rain = 0
KPD1 130226Z 11009KT 01/M14 A3032 RMK A01 T00071135  RH  034%=      5-min Rain = 0
KPD1 130227Z 11007KT 01/M14 A3032 RMK A01 T00071135  RH  034%=      5-min Rain = 0
KPD1 130228Z 11007KT 01/M14 A3032 RMK A01 T00071135  RH  034%=      5-min Rain = 0
KPD1 130229Z 11006KT 01/M14 A3032 RMK A01 T00071135  RH  034%=      5-min Rain = 0
KPD1 130230Z 11008KT 01/M13 A3032 RMK A01 T00081134  RH  034%=      5-min Rain = 0
KPD1 130231Z 11006KT 01/M14 A3033 RMK A01 T00071135  RH  034%=      5-min Rain = 0
KPD1 130232Z 11007KT 01/M14 A3033 RMK A01 T00061135  RH  034%=      5-min Rain = 0
KPD1 130233Z 11006KT 01/M14 A3033 RMK A01 T00061135  RH  034%=      5-min Rain = 0
KPD1 130234Z 10006KT 01/M14 A3033 RMK A01 T00061135  RH  034%=      5-min Rain = 0
KPD1 130235Z 11006KT 01/M14 A3033 RMK A01 T00061136  RH  034%=      5-min Rain = 0
KPD1 130236Z 11005KT 01/M14 A3033 RMK A01 T00061136  RH  034%=      5-min Rain = 0
KPD1 130237Z 11007KT 01/M14 A3034 RMK A01 T00051136  RH  034%=      5-min Rain = 0
KPD1 130238Z 11007KT 00/M14 A3034 RMK A01 T00041136  RH  034%=      5-min Rain = 0
KPD1 130239Z 11007KT 00/M14 A3034 RMK A01 T00041135  RH  034%=      5-min Rain = 0
KPD1 130240Z 09007KT 00/M14 A3034 RMK A01 T00041135  RH  034%=      5-min Rain = 0
KPD1 130241Z 09005KT 00/M14 A3034 RMK A01 T00041135  RH  034%=      5-min Rain = 0
KPD1 130242Z 07005KT 00/M14 A3034 RMK A01 T00031136  RH  034%=      5-min Rain = 0
KPD1 130243Z 07005KT 00/M14 A3034 RMK A01 T00011137  RH  035%=      5-min Rain = 0
KPD1 130244Z 08005KT 00/14 A3034 RMK A01 T00-00-137  RH  035%=      5-min Rain = 0
KPD1 130245Z 10004KT M00/M14 A3034 RMK A01 T10021138  RH  035%=      5-min Rain = 0
KPD1 130246Z 09005KT M00/M14 A3034 RMK A01 T10031138  RH  035%=      5-min Rain = 0
KPD1 130247Z 10004KT M00/M14 A3034 RMK A01 T10041138  RH  036%=      5-min Rain = 0
KPD1 130248Z 10006KT M01/M14 A3035 RMK A01 T10051138  RH  036%=      5-min Rain = 0
KPD1 130249Z 10006KT M01/M14 A3035 RMK A01 T10051137  RH  036%=      5-min Rain = 0
KPD1 130250Z 09004KT M01/M14 A3035 RMK A01 T10051137  RH  036%=      5-min Rain = 0
KPD1 130251Z 06004KT M01/M14 A3035 RMK A01 T10051137  RH  036%=      5-min Rain = 0
KPD1 130252Z 04006KT M01/M14 A3035 RMK A01 T10071138  RH  036%=      5-min Rain = 0
KPD1 130253Z 06006KT M01/M14 A3035 RMK A01 T10091140  RH  037%=      5-min Rain = 0
KPD1 130254Z 09005KT M01/M14 A3035 RMK A01 T10111140  RH  037%=      5-min Rain = 0
KPD1 130255Z 14005KT M01/M14 A3034 RMK A01 T10121140  RH  037%=      5-min Rain = 0
KPD1 130256Z 14006KT M01/M14 A3034 RMK A01 T10131139  RH  038%=      5-min Rain = 0
KPD1 130257Z 10004KT M01/M14 A3035 RMK A01 T10141139  RH  038%=      5-min Rain = 0
KPD1 130258Z 04006KT M01/M14 A3035 RMK A01 T10141139  RH  038%=      5-min Rain = 0
KPD1 130259Z 04006KT M01/M14 A3035 RMK A01 T10131138  RH  038%=      5-min Rain = 0
KPD1 130300Z 05004KT M01/M14 A3035 RMK A01 T10131138  RH  038%=      5-min Rain = 0
KPD1 130301Z 09003KT M01/M14 A3035 RMK A01 T10131138  RH  038%=      5-min Rain = 0
KPD1 130302Z 14004KT M01/M14 A3035 RMK A01 T10141138  RH  038%=      5-min Rain = 0
KPD1 130303Z 13004KT M01/M14 A3035 RMK A01 T10141139  RH  038%=      5-min Rain = 0
KPD1 130304Z 12004KT M02/M14 A3035 RMK A01 T10151139  RH  038%=      5-min Rain = 0
KPD1 130305Z 09003KT M02/M14 A3036 RMK A01 T10151138  RH  038%=      5-min Rain = 0
KPD1 130306Z 08003KT M02/M14 A3036 RMK A01 T10151138  RH  039%=      5-min Rain = 0
KPD1 130307Z 06002KT M02/M14 A3035 RMK A01 T10151138  RH  039%=      5-min Rain = 0
KPD1 130308Z 09002KT M02/M14 A3035 RMK A01 T10151138  RH  039%=      5-min Rain = 0
KPD1 130309Z 13003KT M02/M14 A3035 RMK A01 T10151138  RH  039%=      5-min Rain = 0
KPD1 130310Z 13004KT M02/M14 A3035 RMK A01 T10161139  RH  039%=      5-min Rain = 0
KPD1 130311Z 13005KT M02/M14 A3035 RMK A01 T10171139  RH  039%=      5-min Rain = 0
KPD1 130312Z 12005KT M02/M14 A3035 RMK A01 T10171139  RH  039%=      5-min Rain = 0
KPD1 130313Z 10004KT M02/M14 A3035 RMK A01 T10171139  RH  039%=      5-min Rain = 0
KPD1 130314Z 08004KT M02/M14 A3036 RMK A01 T10161138  RH  039%=      5-min Rain = 0
KPD1 130315Z 07004KT M02/M14 A3036 RMK A01 T10161138  RH  039%=      5-min Rain = 0
KPD1 130316Z 09004KT M02/M14 A3036 RMK A01 T10161139  RH  039%=      5-min Rain = 0
KPD1 130317Z 12004KT M02/M14 A3035 RMK A01 T10171139  RH  039%=      5-min Rain = 0
KPD1 130318Z 13006KT M02/M14 A3035 RMK A01 T10181140  RH  039%=      5-min Rain = 0
KPD1 130319Z 12006KT M02/M14 A3036 RMK A01 T10181139  RH  039%=      5-min Rain = 0
KPD1 130320Z 09004KT M02/M14 A3036 RMK A01 T10181139  RH  039%=      5-min Rain = 0
KPD1 130321Z 07004KT M02/M14 A3036 RMK A01 T10181139  RH  039%=      5-min Rain = 0
KPD1 130322Z 06004KT M02/M14 A3036 RMK A01 T10181138  RH  039%=      5-min Rain = 0
KPD1 130323Z 07004KT M02/M14 A3036 RMK A01 T10181139  RH  039%=      5-min Rain = 0
KPD1 130324Z 10003KT M02/M14 A3036 RMK A01 T10181139  RH  039%=      5-min Rain = 0
KPD1 130325Z 11004KT M02/M14 A3036 RMK A01 T10201140  RH  039%=      5-min Rain = 0
KPD1 130326Z 11003KT M02/M14 A3036 RMK A01 T10201140  RH  040%=      5-min Rain = 0
KPD1 130327Z 10003KT M02/M14 A3036 RMK A01 T10211140  RH  040%=      5-min Rain = 0
KPD1 130328Z 09003KT M02/M14 A3036 RMK A01 T10211139  RH  040%=      5-min Rain = 0
KPD1 130329Z 11003KT M02/M14 A3037 RMK A01 T10211139  RH  040%=      5-min Rain = 0
KPD1 130330Z 12002KT M02/M14 A3037 RMK A01 T10221139  RH  040%=      5-min Rain = 0
KPD1 130331Z 12002KT M02/M14 A3037 RMK A01 T10221139  RH  040%=      5-min Rain = 0
KPD1 130332Z 12002KT M02/M14 A3037 RMK A01 T10211139  RH  040%=      5-min Rain = 0
KPD1 130333Z 11003KT M02/M14 A3037 RMK A01 T10211139  RH  040%=      5-min Rain = 0
KPD1 130334Z 12002KT M02/M14 A3037 RMK A01 T10211139  RH  040%=      5-min Rain = 0
KPD1 130335Z 14003KT M02/M14 A3037 RMK A01 T10211139  RH  040%=      5-min Rain = 0
KPD1 130336Z 17002KT M02/M14 A3037 RMK A01 T10211139  RH  040%=      5-min Rain = 0
KPD1 130337Z 17001KT M02/M14 A3037 RMK A01 T10221139  RH  040%=      5-min Rain = 0
KPD1 130338Z 15001KT M02/M14 A3037 RMK A01 T10221140  RH  040%=      5-min Rain = 0
KPD1 130339Z 12002KT M02/M14 A3037 RMK A01 T10221140  RH  040%=      5-min Rain = 0
KPD1 130340Z 12002KT M02/M14 A3037 RMK A01 T10221139  RH  040%=      5-min Rain = 0
KPD1 130341Z 13003KT M02/M14 A3037 RMK A01 T10231139  RH  040%=      5-min Rain = 0
KPD1 130342Z 14004KT M02/M14 A3037 RMK A01 T10221139  RH  040%=      5-min Rain = 0
KPD1 130343Z 13004KT M02/M14 A3037 RMK A01 T10221139  RH  040%=      5-min Rain = 0
KPD1 130344Z 12003KT M02/M14 A3037 RMK A01 T10221139  RH  040%=      5-min Rain = 0
KPD1 130345Z 12003KT M02/M14 A3038 RMK A01 T10221139  RH  040%=      5-min Rain = 0
KPD1 130346Z 12003KT M02/M14 A3038 RMK A01 T10221139  RH  040%=      5-min Rain = 0
KPD1 130347Z 13003KT M02/M14 A3038 RMK A01 T10221139  RH  040%=      5-min Rain = 0
KPD1 130348Z 13003KT M02/M14 A3038 RMK A01 T10221139  RH  040%=      5-min Rain = 0
KPD1 130349Z 14003KT M02/M14 A3038 RMK A01 T10221139  RH  040%=      5-min Rain = 0
KPD1 130350Z 13004KT M02/M14 A3038 RMK A01 T10211139  RH  040%=      5-min Rain = 0
KPD1 130351Z 13004KT M02/M14 A3038 RMK A01 T10211139  RH  040%=      5-min Rain = 0
KPD1 130352Z 12004KT M02/M14 A3038 RMK A01 T10221139  RH  040%=      5-min Rain = 0
KPD1 130353Z 12003KT M02/M14 A3038 RMK A01 T10231140  RH  040%=      5-min Rain = 0
KPD1 130354Z 12002KT M02/M14 A3038 RMK A01 T10231140  RH  040%=      5-min Rain = 0
KPD1 130355Z 13003KT M02/M14 A3038 RMK A01 T10221139  RH  040%=      5-min Rain = 0
KPD1 130356Z 12004KT M02/M14 A3038 RMK A01 T10221139  RH  040%=      5-min Rain = 0
KPD1 130357Z 12003KT M02/M14 A3038 RMK A01 T10221139  RH  040%=      5-min Rain = 0
KPD1 130358Z 11003KT M02/M14 A3038 RMK A01 T10231140  RH  040%=      5-min Rain = 0
KPD1 130359Z 10003KT M02/M14 A3038 RMK A01 T10231139  RH  041%=      5-min Rain = 0
KPD1 130400Z 11004KT M02/M14 A3038 RMK A01 T10241140  RH  041%=      5-min Rain = 0
KPD1 130401Z 11004KT M02/M14 A3038 RMK A01 T10231139  RH  041%=      5-min Rain = 0
KPD1 130402Z 11004KT M02/M14 A3038 RMK A01 T10231139  RH  041%=      5-min Rain = 0
KPD1 130403Z 11004KT M02/M14 A3039 RMK A01 T10231139  RH  041%=      5-min Rain = 0
KPD1 130404Z 11003KT M02/M14 A3039 RMK A01 T10231139  RH  041%=      5-min Rain = 0
KPD1 130405Z 10004KT M02/M14 A3039 RMK A01 T10231139  RH  040%=      5-min Rain = 0
KPD1 130406Z 10004KT M02/M14 A3039 RMK A01 T10231140  RH  040%=      5-min Rain = 0
KPD1 130407Z 10004KT M02/M14 A3039 RMK A01 T10231139  RH  041%=      5-min Rain = 0
KPD1 130408Z 12003KT M02/M14 A3039 RMK A01 T10231139  RH  041%=      5-min Rain = 0
KPD1 130409Z 11003KT M02/M14 A3039 RMK A01 T10231139  RH  041%=      5-min Rain = 0
KPD1 130410Z 11004KT M02/M14 A3039 RMK A01 T10231139  RH  041%=      5-min Rain = 0
KPD1 130411Z 12004KT M02/M14 A3039 RMK A01 T10231139  RH  040%=      5-min Rain = 0
KPD1 130412Z 13003KT M02/M14 A3039 RMK A01 T10231140  RH  040%=      5-min Rain = 0
KPD1 130413Z 12004KT M02/M14 A3039 RMK A01 T10231140  RH  040%=      5-min Rain = 0
KPD1 130414Z 10004KT M02/M14 A3039 RMK A01 T10231140  RH  040%=      5-min Rain = 0
KPD1 130415Z 10004KT M02/M14 A3039 RMK A01 T10231140  RH  040%=      5-min Rain = 0
KPD1 130416Z 10004KT M02/M14 A3039 RMK A01 T10231140  RH  040%=      5-min Rain = 0
KPD1 130417Z 11005KT M02/M14 A3039 RMK A01 T10231140  RH  040%=      5-min Rain = 0
KPD1 130418Z 12005KT M02/M14 A3039 RMK A01 T10231140  RH  040%=      5-min Rain = 0
KPD1 130419Z 12005KT M02/M14 A3039 RMK A01 T10231140  RH  040%=      5-min Rain = 0
KPD1 130420Z 12004KT M02/M14 A3039 RMK A01 T10241140  RH  040%=      5-min Rain = 0
KPD1 130421Z 12005KT M02/M14 A3039 RMK A01 T10241140  RH  040%=      5-min Rain = 0
KPD1 130422Z 12004KT M02/M14 A3039 RMK A01 T10241140  RH  040%=      5-min Rain = 0
KPD1 130423Z 11004KT M02/M14 A3039 RMK A01 T10241141  RH  040%=      5-min Rain = 0
KPD1 130424Z 11004KT M02/M14 A3039 RMK A01 T10241141  RH  040%=      5-min Rain = 0
KPD1 130425Z 11004KT M02/M14 A3039 RMK A01 T10241141  RH  040%=      5-min Rain = 0
KPD1 130426Z 12004KT M02/M14 A304 RMK A01 T10241140  RH  040%=      5-min Rain = 0
KPD1 130427Z 11004KT M02/M14 A304 RMK A01 T10241140  RH  041%=      5-min Rain = 0
KPD1 130428Z 11003KT M03/M14 A304 RMK A01 T10251141  RH  040%=      5-min Rain = 0
KPD1 130429Z 12004KT M03/M14 A304 RMK A01 T10251141  RH  041%=      5-min Rain = 0
KPD1 130430Z 13004KT M03/M14 A304 RMK A01 T10251141  RH  041%=      5-min Rain = 0
KPD1 130431Z 13004KT M03/M14 A304 RMK A01 T10251141  RH  041%=      5-min Rain = 0
KPD1 130432Z 13004KT M03/M14 A304 RMK A01 T10261141  RH  041%=      5-min Rain = 0
KPD1 130433Z 14004KT M03/M14 A304 RMK A01 T10261141  RH  041%=      5-min Rain = 0
KPD1 130434Z 14003KT M03/M14 A304 RMK A01 T10261142  RH  041%=      5-min Rain = 0
KPD1 130435Z 14003KT M03/M14 A304 RMK A01 T10271142  RH  041%=      5-min Rain = 0
KPD1 130436Z 15003KT M03/M14 A304 RMK A01 T10271142  RH  041%=      5-min Rain = 0
KPD1 130437Z 16003KT M03/M14 A304 RMK A01 T10281142  RH  041%=      5-min Rain = 0
KPD1 130438Z 16003KT M03/M14 A304 RMK A01 T10281142  RH  041%=      5-min Rain = 0
KPD1 130439Z 16004KT M03/M14 A304 RMK A01 T10291143  RH  041%=      5-min Rain = 0
KPD1 130440Z 16004KT M03/M14 A304 RMK A01 T10291143  RH  041%=      5-min Rain = 0
KPD1 130441Z 16004KT M03/M14 A304 RMK A01 T10301143  RH  041%=      5-min Rain = 0
KPD1 130442Z 16005KT M03/M14 A304 RMK A01 T10301143  RH  042%=      5-min Rain = 0
KPD1 130443Z 16005KT M03/M14 A3039 RMK A01 T10301142  RH  042%=      5-min Rain = 0
KPD1 130444Z 16005KT M03/M14 A3039 RMK A01 T10301142  RH  042%=      5-min Rain = 0
KPD1 130445Z 16005KT M03/M14 A3039 RMK A01 T10301142  RH  042%=      5-min Rain = 0
KPD1 130446Z 16006KT M03/M14 A3039 RMK A01 T10301142  RH  042%=      5-min Rain = 0
KPD1 130447Z 16004KT M03/M14 A3039 RMK A01 T10301142  RH  042%=      5-min Rain = 0
KPD1 130448Z 16004KT M03/M14 A3039 RMK A01 T10301142  RH  042%=      5-min Rain = 0
KPD1 130449Z 16004KT M03/M14 A3039 RMK A01 T10301142  RH  042%=      5-min Rain = 0
KPD1 130450Z 16005KT M03/M14 A3039 RMK A01 T10301142  RH  042%=      5-min Rain = 0
KPD1 130451Z 16005KT M03/M14 A3039 RMK A01 T10301142  RH  042%=      5-min Rain = 0
KPD1 130452Z 16005KT M03/M14 A304 RMK A01 T10301142  RH  042%=      5-min Rain = 0
KPD1 130453Z 16004KT M03/M14 A304 RMK A01 T10301143  RH  041%=      5-min Rain = 0
KPD1 130454Z 16004KT M03/M14 A304 RMK A01 T10301143  RH  041%=      5-min Rain = 0
KPD1 130455Z 17004KT M03/M14 A304 RMK A01 T10301143  RH  041%=      5-min Rain = 0
KPD1 130456Z 16004KT M03/M14 A304 RMK A01 T10301143  RH  041%=      5-min Rain = 0
KPD1 130457Z 17004KT M03/M14 A304 RMK A01 T10301143  RH  041%=      5-min Rain = 0
KPD1 130458Z 17005KT M03/M14 A304 RMK A01 T10301143  RH  041%=      5-min Rain = 0
KPD1 130459Z 18004KT M03/M14 A304 RMK A01 T10311144  RH  041%=      5-min Rain = 0
KPD1 130500Z 19004KT M03/M14 A304 RMK A01 T10301144  RH  041%=      5-min Rain = 0
KPD1 130501Z 19004KT M03/M14 A304 RMK A01 T10311144  RH  041%=      5-min Rain = 0
KPD1 130502Z 19004KT M03/M14 A304 RMK A01 T10311144  RH  041%=      5-min Rain = 0
KPD1 130503Z 20004KT M03/M14 A3041 RMK A01 T10311144  RH  041%=      5-min Rain = 0
KPD1 130504Z 20004KT M03/M15 A3041 RMK A01 T10321145  RH  041%=      5-min Rain = 0
KPD1 130505Z 20004KT M03/M15 A3041 RMK A01 T10321145  RH  042%=      5-min Rain = 0
KPD1 130506Z 19005KT M03/M15 A3041 RMK A01 T10331145  RH  042%=      5-min Rain = 0
KPD1 130507Z 18005KT M03/M14 A3041 RMK A01 T10331144  RH  042%=      5-min Rain = 0
KPD1 130508Z 19005KT M03/M15 A3041 RMK A01 T10331145  RH  042%=      5-min Rain = 0
KPD1 130509Z 19005KT M03/M15 A3041 RMK A01 T10331145  RH  042%=      5-min Rain = 0
KPD1 130510Z 19005KT M03/M15 A304 RMK A01 T10331145  RH  042%=      5-min Rain = 0
KPD1 130511Z 19004KT M03/M15 A304 RMK A01 T10331145  RH  042%=      5-min Rain = 0
KPD1 130512Z 19004KT M03/M14 A3041 RMK A01 T10331144  RH  042%=      5-min Rain = 0
KPD1 130513Z 19004KT M03/M14 A3041 RMK A01 T10331144  RH  042%=      5-min Rain = 0
KPD1 130514Z 19004KT M03/M14 A3041 RMK A01 T10331144  RH  042%=      5-min Rain = 0
KPD1 130515Z 19005KT M03/M14 A3041 RMK A01 T10331144  RH  042%=      5-min Rain = 0
KPD1 130516Z 20004KT M03/M14 A3041 RMK A01 T10331144  RH  042%=      5-min Rain = 0
KPD1 130517Z 19004KT M03/M14 A3041 RMK A01 T10331144  RH  042%=      5-min Rain = 0
KPD1 130518Z 19005KT M03/M14 A3041 RMK A01 T10331144  RH  042%=      5-min Rain = 0
KPD1 130519Z 19004KT M03/M15 A3041 RMK A01 T10331145  RH  042%=      5-min Rain = 0
KPD1 130520Z 18004KT M03/M15 A3041 RMK A01 T10341145  RH  042%=      5-min Rain = 0
KPD1 130521Z 18005KT M03/M15 A3041 RMK A01 T10331145  RH  042%=      5-min Rain = 0
KPD1 130522Z 18006KT M03/M14 A3041 RMK A01 T10331144  RH  042%=      5-min Rain = 0
KPD1 130523Z 18005KT M03/M14 A3041 RMK A01 T10311143  RH  042%=      5-min Rain = 0
KPD1 130524Z 18004KT M03/M14 A3041 RMK A01 T10311144  RH  041%=      5-min Rain = 0
KPD1 130525Z 18003KT M03/M14 A3041 RMK A01 T10311144  RH  041%=      5-min Rain = 0
KPD1 130526Z 19003KT M03/M14 A3041 RMK A01 T10311144  RH  041%=      5-min Rain = 0
KPD1 130527Z 19004KT M03/M14 A3041 RMK A01 T10311144  RH  041%=      5-min Rain = 0
KPD1 130528Z 19005KT M03/M15 A304 RMK A01 T10311145  RH  041%=      5-min Rain = 0
KPD1 130529Z 18005KT M03/M15 A304 RMK A01 T10321145  RH  041%=      5-min Rain = 0
KPD1 130530Z 18005KT M03/M15 A304 RMK A01 T10321145  RH  041%=      5-min Rain = 0
KPD1 130531Z 18005KT M03/M15 A304 RMK A01 T10321145  RH  041%=      5-min Rain = 0
KPD1 130532Z 19005KT M03/M15 A304 RMK A01 T10321145  RH  041%=      5-min Rain = 0
KPD1 130533Z 19004KT M03/M15 A304 RMK A01 T10321145  RH  041%=      5-min Rain = 0
KPD1 130534Z 19004KT M03/M15 A304 RMK A01 T10321145  RH  041%=      5-min Rain = 0
KPD1 130535Z 18004KT M03/M15 A304 RMK A01 T10321145  RH  041%=      5-min Rain = 0
KPD1 130536Z 19004KT M03/M15 A304 RMK A01 T10321145  RH  041%=      5-min Rain = 0
KPD1 130537Z 20004KT M03/M15 A3041 RMK A01 T10321145  RH  041%=      5-min Rain = 0
KPD1 130538Z 20004KT M03/M15 A3041 RMK A01 T10331146  RH  041%=      5-min Rain = 0
KPD1 130539Z 19004KT M03/M15 A3041 RMK A01 T10331146  RH  041%=      5-min Rain = 0
KPD1 130540Z 19003KT M03/M15 A3041 RMK A01 T10341146  RH  041%=      5-min Rain = 0
KPD1 130541Z 18004KT M03/M15 A3041 RMK A01 T10341146  RH  042%=      5-min Rain = 0
KPD1 130542Z 18004KT M03/M15 A3041 RMK A01 T10341146  RH  042%=      5-min Rain = 0
KPD1 130543Z 18003KT M03/M15 A3041 RMK A01 T10341146  RH  042%=      5-min Rain = 0
KPD1 130544Z 18003KT M03/M15 A3041 RMK A01 T10341146  RH  042%=      5-min Rain = 0
KPD1 130545Z 19004KT M03/M15 A3041 RMK A01 T10341146  RH  042%=      5-min Rain = 0
KPD1 130546Z 19003KT M03/M15 A3041 RMK A01 T10341146  RH  042%=      5-min Rain = 0
KPD1 130547Z 18003KT M03/M15 A3041 RMK A01 T10341146  RH  042%=      5-min Rain = 0
KPD1 130548Z 19003KT M04/M15 A3041 RMK A01 T10351146  RH  042%=      5-min Rain = 0
KPD1 130549Z 20003KT M04/M15 A3041 RMK A01 T10351146  RH  042%=      5-min Rain = 0
KPD1 130550Z 20003KT M04/M15 A3041 RMK A01 T10361147  RH  042%=      5-min Rain = 0
KPD1 130551Z 20003KT M04/M15 A3041 RMK A01 T10361147  RH  042%=      5-min Rain = 0
KPD1 130552Z 20003KT M04/M15 A3041 RMK A01 T10371147  RH  042%=      5-min Rain = 0
KPD1 130553Z 20002KT M04/M15 A3041 RMK A01 T10371147  RH  042%=      5-min Rain = 0
KPD1 130554Z 21002KT M04/M15 A3041 RMK A01 T10381147  RH  042%=      5-min Rain = 0
KPD1 130555Z 26004KT M04/M15 A3042 RMK A01 T10381147  RH  042%=      5-min Rain = 0
KPD1 130556Z 29004KT M04/M15 A3042 RMK A01 T10381147  RH  043%=      5-min Rain = 0
KPD1 130557Z 29005KT M04/M15 A3042 RMK A01 T10391147  RH  043%=      5-min Rain = 0
KPD1 130558Z 28005KT M04/M15 A3042 RMK A01 T10401148  RH  043%=      5-min Rain = 0
KPD1 130559Z 28005KT M04/M15 A3042 RMK A01 T10421149  RH  043%=      5-min Rain = 0

Page generated in 0.087 seconds.